<?xml version="1.0" encoding="UTF-8" standalone="no" ?>
<gpx xmlns="http://www.topografix.com/GPX/1/1" xmlns:xsi="http://www.w3.org/2001/XMLSchema-instance" xsi:schemaLocation="http://www.topografix.com/GPX/1/1 http://www.topografix.com/GPX/1/1/gpx.xsd" version="1.1" creator="VisuGPX - https://www.visugpx.com">
  <metadata>
    <name>StLaurentOust_Houssa_13-19km</name>
    <desc><![CDATA[gnerando idor: 7170662_7072306_7072310_7072327]]></desc>
  </metadata>
  <trk>
    <name><![CDATA[StLaurentOust_HoussaStCongard_18.6km-7170662]]></name>
    <extensions>
      <line xmlns="http://www.topografix.com/GPX/gpx_style/0/2">
        <color>0000FF</color>
        <width>4</width>
      </line>
    </extensions>
    <trkseg>
      <trkpt lat="47.79482" lon="-2.31885">
        <ele>15</ele>
        <time>2023-11-13T07:27:45Z</time>
      </trkpt>
      <trkpt lat="47.79502" lon="-2.3193">
        <ele>15</ele>
        <time>2023-11-13T07:28:33Z</time>
      </trkpt>
      <trkpt lat="47.79467" lon="-2.31947">
        <ele>15</ele>
        <time>2023-11-13T07:29:23Z</time>
      </trkpt>
      <trkpt lat="47.79456" lon="-2.31969">
        <ele>15</ele>
        <time>2023-11-13T07:29:47Z</time>
      </trkpt>
      <trkpt lat="47.79456" lon="-2.31997">
        <ele>14</ele>
        <time>2023-11-13T07:30:12Z</time>
      </trkpt>
      <trkpt lat="47.79446" lon="-2.32022">
        <ele>14</ele>
        <time>2023-11-13T07:30:38Z</time>
      </trkpt>
      <trkpt lat="47.79433" lon="-2.32041">
        <ele>14</ele>
        <time>2023-11-13T07:31:03Z</time>
      </trkpt>
      <trkpt lat="47.79417" lon="-2.32054">
        <ele>13</ele>
        <time>2023-11-13T07:31:27Z</time>
      </trkpt>
      <trkpt lat="47.79408" lon="-2.32078">
        <ele>13</ele>
        <time>2023-11-13T07:31:52Z</time>
      </trkpt>
      <trkpt lat="47.79389" lon="-2.32077">
        <ele>13</ele>
        <time>2023-11-13T07:32:17Z</time>
      </trkpt>
      <trkpt lat="47.79319" lon="-2.3204">
        <ele>12</ele>
        <time>2023-11-13T07:33:56Z</time>
      </trkpt>
      <trkpt lat="47.79303" lon="-2.32025">
        <ele>12</ele>
        <time>2023-11-13T07:34:21Z</time>
      </trkpt>
      <trkpt lat="47.79289" lon="-2.32007">
        <ele>12</ele>
        <time>2023-11-13T07:34:46Z</time>
      </trkpt>
      <trkpt lat="47.79257" lon="-2.3198">
        <ele>11</ele>
        <time>2023-11-13T07:35:35Z</time>
      </trkpt>
      <trkpt lat="47.79221" lon="-2.31966">
        <ele>12</ele>
        <time>2023-11-13T07:36:25Z</time>
      </trkpt>
      <trkpt lat="47.79202" lon="-2.31962">
        <ele>12</ele>
        <time>2023-11-13T07:36:50Z</time>
      </trkpt>
      <trkpt lat="47.79138" lon="-2.31907">
        <ele>11</ele>
        <time>2023-11-13T07:38:29Z</time>
      </trkpt>
      <trkpt lat="47.79115" lon="-2.31864">
        <ele>11</ele>
        <time>2023-11-13T07:39:18Z</time>
      </trkpt>
      <trkpt lat="47.79075" lon="-2.31807">
        <ele>10</ele>
        <time>2023-11-13T07:40:32Z</time>
      </trkpt>
      <trkpt lat="47.79051" lon="-2.31766">
        <ele>11</ele>
        <time>2023-11-13T07:41:21Z</time>
      </trkpt>
      <trkpt lat="47.79023" lon="-2.31731">
        <ele>11</ele>
        <time>2023-11-13T07:42:10Z</time>
      </trkpt>
      <trkpt lat="47.79007" lon="-2.31716">
        <ele>11</ele>
        <time>2023-11-13T07:42:35Z</time>
      </trkpt>
      <trkpt lat="47.79013" lon="-2.31691">
        <ele>12</ele>
        <time>2023-11-13T07:42:59Z</time>
      </trkpt>
      <trkpt lat="47.7905" lon="-2.31628">
        <ele>15</ele>
        <time>2023-11-13T07:44:14Z</time>
      </trkpt>
      <trkpt lat="47.79038" lon="-2.31607">
        <ele>15</ele>
        <time>2023-11-13T07:44:38Z</time>
      </trkpt>
      <trkpt lat="47.79007" lon="-2.31577">
        <ele>14</ele>
        <time>2023-11-13T07:45:28Z</time>
      </trkpt>
      <trkpt lat="47.78993" lon="-2.31559">
        <ele>14</ele>
        <time>2023-11-13T07:45:52Z</time>
      </trkpt>
      <trkpt lat="47.78981" lon="-2.31539">
        <ele>13</ele>
        <time>2023-11-13T07:46:16Z</time>
      </trkpt>
      <trkpt lat="47.78971" lon="-2.31515">
        <ele>13</ele>
        <time>2023-11-13T07:46:42Z</time>
      </trkpt>
      <trkpt lat="47.78976" lon="-2.31488">
        <ele>14</ele>
        <time>2023-11-13T07:47:07Z</time>
      </trkpt>
      <trkpt lat="47.7901" lon="-2.31424">
        <ele>15</ele>
        <time>2023-11-13T07:48:20Z</time>
      </trkpt>
      <trkpt lat="47.79019" lon="-2.314">
        <ele>17</ele>
        <time>2023-11-13T07:48:45Z</time>
      </trkpt>
      <trkpt lat="47.79031" lon="-2.31379">
        <ele>18</ele>
        <time>2023-11-13T07:49:09Z</time>
      </trkpt>
      <trkpt lat="47.79047" lon="-2.31329">
        <ele>21</ele>
        <time>2023-11-13T07:49:59Z</time>
      </trkpt>
      <trkpt lat="47.79061" lon="-2.31248">
        <ele>24</ele>
        <time>2023-11-13T07:51:14Z</time>
      </trkpt>
      <trkpt lat="47.79068" lon="-2.31222">
        <ele>25</ele>
        <time>2023-11-13T07:51:39Z</time>
      </trkpt>
      <trkpt lat="47.7907" lon="-2.31195">
        <ele>26</ele>
        <time>2023-11-13T07:52:04Z</time>
      </trkpt>
      <trkpt lat="47.79078" lon="-2.31171">
        <ele>27</ele>
        <time>2023-11-13T07:52:28Z</time>
      </trkpt>
      <trkpt lat="47.79071" lon="-2.31145">
        <ele>28</ele>
        <time>2023-11-13T07:52:53Z</time>
      </trkpt>
      <trkpt lat="47.79075" lon="-2.31118">
        <ele>30</ele>
        <time>2023-11-13T07:53:17Z</time>
      </trkpt>
      <trkpt lat="47.79101" lon="-2.31045">
        <ele>32</ele>
        <time>2023-11-13T07:54:32Z</time>
      </trkpt>
      <trkpt lat="47.79129" lon="-2.31008">
        <ele>31</ele>
        <time>2023-11-13T07:55:22Z</time>
      </trkpt>
      <trkpt lat="47.79135" lon="-2.30927">
        <ele>28</ele>
        <time>2023-11-13T07:56:35Z</time>
      </trkpt>
      <trkpt lat="47.79123" lon="-2.30906">
        <ele>28</ele>
        <time>2023-11-13T07:56:59Z</time>
      </trkpt>
      <trkpt lat="47.79128" lon="-2.30879">
        <ele>28</ele>
        <time>2023-11-13T07:57:24Z</time>
      </trkpt>
      <trkpt lat="47.79137" lon="-2.30855">
        <ele>27</ele>
        <time>2023-11-13T07:57:49Z</time>
      </trkpt>
      <trkpt lat="47.79134" lon="-2.30828">
        <ele>27</ele>
        <time>2023-11-13T07:58:14Z</time>
      </trkpt>
      <trkpt lat="47.79033" lon="-2.30759">
        <ele>32</ele>
        <time>2023-11-13T08:00:42Z</time>
      </trkpt>
      <trkpt lat="47.78983" lon="-2.30729">
        <ele>35</ele>
        <time>2023-11-13T08:01:54Z</time>
      </trkpt>
      <trkpt lat="47.78912" lon="-2.30697">
        <ele>36</ele>
        <time>2023-11-13T08:03:33Z</time>
      </trkpt>
      <trkpt lat="47.78894" lon="-2.30702">
        <ele>35</ele>
        <time>2023-11-13T08:03:57Z</time>
      </trkpt>
      <trkpt lat="47.78848" lon="-2.30657">
        <ele>34</ele>
        <time>2023-11-13T08:05:11Z</time>
      </trkpt>
      <trkpt lat="47.78832" lon="-2.30646">
        <ele>33</ele>
        <time>2023-11-13T08:05:34Z</time>
      </trkpt>
      <trkpt lat="47.788" lon="-2.30618">
        <ele>33</ele>
        <time>2023-11-13T08:06:24Z</time>
      </trkpt>
      <trkpt lat="47.78766" lon="-2.30594">
        <ele>33</ele>
        <time>2023-11-13T08:07:14Z</time>
      </trkpt>
      <trkpt lat="47.78697" lon="-2.30556">
        <ele>36</ele>
        <time>2023-11-13T08:08:52Z</time>
      </trkpt>
      <trkpt lat="47.78627" lon="-2.30522">
        <ele>43</ele>
        <time>2023-11-13T08:10:30Z</time>
      </trkpt>
      <trkpt lat="47.78595" lon="-2.30497">
        <ele>47</ele>
        <time>2023-11-13T08:11:19Z</time>
      </trkpt>
      <trkpt lat="47.78581" lon="-2.30515">
        <ele>48</ele>
        <time>2023-11-13T08:11:43Z</time>
      </trkpt>
      <trkpt lat="47.78559" lon="-2.30559">
        <ele>51</ele>
        <time>2023-11-13T08:12:33Z</time>
      </trkpt>
      <trkpt lat="47.7855" lon="-2.30584">
        <ele>52</ele>
        <time>2023-11-13T08:12:58Z</time>
      </trkpt>
      <trkpt lat="47.78541" lon="-2.30639">
        <ele>52</ele>
        <time>2023-11-13T08:13:49Z</time>
      </trkpt>
      <trkpt lat="47.78543" lon="-2.30693">
        <ele>51</ele>
        <time>2023-11-13T08:14:37Z</time>
      </trkpt>
      <trkpt lat="47.78535" lon="-2.30719">
        <ele>53</ele>
        <time>2023-11-13T08:15:03Z</time>
      </trkpt>
      <trkpt lat="47.78533" lon="-2.30747">
        <ele>53</ele>
        <time>2023-11-13T08:15:28Z</time>
      </trkpt>
      <trkpt lat="47.78521" lon="-2.308">
        <ele>57</ele>
        <time>2023-11-13T08:16:18Z</time>
      </trkpt>
      <trkpt lat="47.7852" lon="-2.30827">
        <ele>57</ele>
        <time>2023-11-13T08:16:42Z</time>
      </trkpt>
      <trkpt lat="47.78507" lon="-2.30878">
        <ele>60</ele>
        <time>2023-11-13T08:17:31Z</time>
      </trkpt>
      <trkpt lat="47.78503" lon="-2.30904">
        <ele>60</ele>
        <time>2023-11-13T08:17:55Z</time>
      </trkpt>
      <trkpt lat="47.78505" lon="-2.30932">
        <ele>60</ele>
        <time>2023-11-13T08:18:21Z</time>
      </trkpt>
      <trkpt lat="47.78502" lon="-2.30987">
        <ele>63</ele>
        <time>2023-11-13T08:19:10Z</time>
      </trkpt>
      <trkpt lat="47.78507" lon="-2.31013">
        <ele>62</ele>
        <time>2023-11-13T08:19:34Z</time>
      </trkpt>
      <trkpt lat="47.78525" lon="-2.31017">
        <ele>57</ele>
        <time>2023-11-13T08:19:59Z</time>
      </trkpt>
      <trkpt lat="47.78517" lon="-2.31042">
        <ele>60</ele>
        <time>2023-11-13T08:20:23Z</time>
      </trkpt>
      <trkpt lat="47.78526" lon="-2.31095">
        <ele>58</ele>
        <time>2023-11-13T08:21:12Z</time>
      </trkpt>
      <trkpt lat="47.78526" lon="-2.31122">
        <ele>57</ele>
        <time>2023-11-13T08:21:37Z</time>
      </trkpt>
      <trkpt lat="47.78507" lon="-2.31119">
        <ele>62</ele>
        <time>2023-11-13T08:22:02Z</time>
      </trkpt>
      <trkpt lat="47.78499" lon="-2.31094">
        <ele>65</ele>
        <time>2023-11-13T08:22:27Z</time>
      </trkpt>
      <trkpt lat="47.78482" lon="-2.31016">
        <ele>68</ele>
        <time>2023-11-13T08:23:40Z</time>
      </trkpt>
      <trkpt lat="47.78467" lon="-2.30965">
        <ele>69</ele>
        <time>2023-11-13T08:24:30Z</time>
      </trkpt>
      <trkpt lat="47.78456" lon="-2.30944">
        <ele>71</ele>
        <time>2023-11-13T08:24:54Z</time>
      </trkpt>
      <trkpt lat="47.78438" lon="-2.30939">
        <ele>74</ele>
        <time>2023-11-13T08:25:19Z</time>
      </trkpt>
      <trkpt lat="47.78449" lon="-2.3096">
        <ele>73</ele>
        <time>2023-11-13T08:25:43Z</time>
      </trkpt>
      <trkpt lat="47.7844" lon="-2.30984">
        <ele>75</ele>
        <time>2023-11-13T08:26:07Z</time>
      </trkpt>
      <trkpt lat="47.78425" lon="-2.31">
        <ele>78</ele>
        <time>2023-11-13T08:26:32Z</time>
      </trkpt>
      <trkpt lat="47.78418" lon="-2.31025">
        <ele>79</ele>
        <time>2023-11-13T08:26:56Z</time>
      </trkpt>
      <trkpt lat="47.78418" lon="-2.31054">
        <ele>79</ele>
        <time>2023-11-13T08:27:22Z</time>
      </trkpt>
      <trkpt lat="47.78406" lon="-2.31074">
        <ele>79</ele>
        <time>2023-11-13T08:27:46Z</time>
      </trkpt>
      <trkpt lat="47.7839" lon="-2.31058">
        <ele>78</ele>
        <time>2023-11-13T08:28:12Z</time>
      </trkpt>
      <trkpt lat="47.78406" lon="-2.31071">
        <ele>79</ele>
        <time>2023-11-13T08:28:36Z</time>
      </trkpt>
      <trkpt lat="47.78413" lon="-2.31097">
        <ele>78</ele>
        <time>2023-11-13T08:29:01Z</time>
      </trkpt>
      <trkpt lat="47.78428" lon="-2.31083">
        <ele>77</ele>
        <time>2023-11-13T08:29:25Z</time>
      </trkpt>
      <trkpt lat="47.78443" lon="-2.31097">
        <ele>74</ele>
        <time>2023-11-13T08:29:49Z</time>
      </trkpt>
      <trkpt lat="47.78451" lon="-2.31123">
        <ele>72</ele>
        <time>2023-11-13T08:30:14Z</time>
      </trkpt>
      <trkpt lat="47.78459" lon="-2.31204">
        <ele>66</ele>
        <time>2023-11-13T08:31:28Z</time>
      </trkpt>
      <trkpt lat="47.78452" lon="-2.3123">
        <ele>66</ele>
        <time>2023-11-13T08:31:53Z</time>
      </trkpt>
      <trkpt lat="47.78448" lon="-2.31257">
        <ele>64</ele>
        <time>2023-11-13T08:32:18Z</time>
      </trkpt>
      <trkpt lat="47.78438" lon="-2.3128">
        <ele>62</ele>
        <time>2023-11-13T08:32:42Z</time>
      </trkpt>
      <trkpt lat="47.7842" lon="-2.31285">
        <ele>64</ele>
        <time>2023-11-13T08:33:07Z</time>
      </trkpt>
      <trkpt lat="47.78402" lon="-2.3128">
        <ele>64</ele>
        <time>2023-11-13T08:33:31Z</time>
      </trkpt>
      <trkpt lat="47.78373" lon="-2.31247">
        <ele>66</ele>
        <time>2023-11-13T08:34:20Z</time>
      </trkpt>
      <trkpt lat="47.78363" lon="-2.31224">
        <ele>67</ele>
        <time>2023-11-13T08:34:44Z</time>
      </trkpt>
      <trkpt lat="47.78358" lon="-2.31197">
        <ele>70</ele>
        <time>2023-11-13T08:35:09Z</time>
      </trkpt>
      <trkpt lat="47.78349" lon="-2.31174">
        <ele>71</ele>
        <time>2023-11-13T08:35:33Z</time>
      </trkpt>
      <trkpt lat="47.78335" lon="-2.31124">
        <ele>74</ele>
        <time>2023-11-13T08:36:22Z</time>
      </trkpt>
      <trkpt lat="47.78332" lon="-2.31097">
        <ele>75</ele>
        <time>2023-11-13T08:36:46Z</time>
      </trkpt>
      <trkpt lat="47.78323" lon="-2.31073">
        <ele>75</ele>
        <time>2023-11-13T08:37:11Z</time>
      </trkpt>
      <trkpt lat="47.78312" lon="-2.30991">
        <ele>75</ele>
        <time>2023-11-13T08:38:26Z</time>
      </trkpt>
      <trkpt lat="47.78296" lon="-2.30942">
        <ele>73</ele>
        <time>2023-11-13T08:39:15Z</time>
      </trkpt>
      <trkpt lat="47.78285" lon="-2.3092">
        <ele>72</ele>
        <time>2023-11-13T08:39:39Z</time>
      </trkpt>
      <trkpt lat="47.78284" lon="-2.30893">
        <ele>73</ele>
        <time>2023-11-13T08:40:04Z</time>
      </trkpt>
      <trkpt lat="47.78296" lon="-2.30872">
        <ele>75</ele>
        <time>2023-11-13T08:40:28Z</time>
      </trkpt>
      <trkpt lat="47.7831" lon="-2.30854">
        <ele>77</ele>
        <time>2023-11-13T08:40:53Z</time>
      </trkpt>
      <trkpt lat="47.78335" lon="-2.30814">
        <ele>79</ele>
        <time>2023-11-13T08:41:42Z</time>
      </trkpt>
      <trkpt lat="47.78349" lon="-2.30797">
        <ele>79</ele>
        <time>2023-11-13T08:42:06Z</time>
      </trkpt>
      <trkpt lat="47.78394" lon="-2.30749">
        <ele>78</ele>
        <time>2023-11-13T08:43:20Z</time>
      </trkpt>
      <trkpt lat="47.78412" lon="-2.30733">
        <ele>77</ele>
        <time>2023-11-13T08:43:48Z</time>
      </trkpt>
      <trkpt lat="47.78422" lon="-2.30711">
        <ele>75</ele>
        <time>2023-11-13T08:44:12Z</time>
      </trkpt>
      <trkpt lat="47.78411" lon="-2.3063">
        <ele>77</ele>
        <time>2023-11-13T08:45:26Z</time>
      </trkpt>
      <trkpt lat="47.7841" lon="-2.30491">
        <ele>79</ele>
        <time>2023-11-13T08:47:31Z</time>
      </trkpt>
      <trkpt lat="47.78405" lon="-2.30464">
        <ele>79</ele>
        <time>2023-11-13T08:47:56Z</time>
      </trkpt>
      <trkpt lat="47.78402" lon="-2.30379">
        <ele>80</ele>
        <time>2023-11-13T08:49:12Z</time>
      </trkpt>
      <trkpt lat="47.78394" lon="-2.30354">
        <ele>81</ele>
        <time>2023-11-13T08:49:37Z</time>
      </trkpt>
      <trkpt lat="47.78398" lon="-2.30298">
        <ele>82</ele>
        <time>2023-11-13T08:50:27Z</time>
      </trkpt>
      <trkpt lat="47.78398" lon="-2.30242">
        <ele>84</ele>
        <time>2023-11-13T08:51:18Z</time>
      </trkpt>
      <trkpt lat="47.78373" lon="-2.30201">
        <ele>86</ele>
        <time>2023-11-13T08:52:07Z</time>
      </trkpt>
      <trkpt lat="47.78357" lon="-2.30152">
        <ele>88</ele>
        <time>2023-11-13T08:52:56Z</time>
      </trkpt>
      <trkpt lat="47.78351" lon="-2.30098">
        <ele>91</ele>
        <time>2023-11-13T08:53:45Z</time>
      </trkpt>
      <trkpt lat="47.78336" lon="-2.30016">
        <ele>93</ele>
        <time>2023-11-13T08:55:01Z</time>
      </trkpt>
      <trkpt lat="47.78341" lon="-2.29991">
        <ele>93</ele>
        <time>2023-11-13T08:55:25Z</time>
      </trkpt>
      <trkpt lat="47.78326" lon="-2.29827">
        <ele>97</ele>
        <time>2023-11-13T08:57:53Z</time>
      </trkpt>
      <trkpt lat="47.7834" lon="-2.29808">
        <ele>97</ele>
        <time>2023-11-13T08:58:18Z</time>
      </trkpt>
      <trkpt lat="47.78358" lon="-2.29816">
        <ele>96</ele>
        <time>2023-11-13T08:58:43Z</time>
      </trkpt>
      <trkpt lat="47.78426" lon="-2.29856">
        <ele>89</ele>
        <time>2023-11-13T09:00:21Z</time>
      </trkpt>
      <trkpt lat="47.78442" lon="-2.29869">
        <ele>88</ele>
        <time>2023-11-13T09:00:45Z</time>
      </trkpt>
      <trkpt lat="47.78462" lon="-2.29876">
        <ele>86</ele>
        <time>2023-11-13T09:01:13Z</time>
      </trkpt>
      <trkpt lat="47.78489" lon="-2.29912">
        <ele>83</ele>
        <time>2023-11-13T09:02:01Z</time>
      </trkpt>
      <trkpt lat="47.78523" lon="-2.29979">
        <ele>77</ele>
        <time>2023-11-13T09:03:16Z</time>
      </trkpt>
      <trkpt lat="47.78532" lon="-2.30004">
        <ele>75</ele>
        <time>2023-11-13T09:03:42Z</time>
      </trkpt>
      <trkpt lat="47.78568" lon="-2.30068">
        <ele>68</ele>
        <time>2023-11-13T09:04:57Z</time>
      </trkpt>
      <trkpt lat="47.78582" lon="-2.30051">
        <ele>66</ele>
        <time>2023-11-13T09:05:21Z</time>
      </trkpt>
      <trkpt lat="47.78711" lon="-2.29655">
        <ele>61</ele>
        <time>2023-11-13T09:11:55Z</time>
      </trkpt>
      <trkpt lat="47.78717" lon="-2.29629">
        <ele>60</ele>
        <time>2023-11-13T09:12:20Z</time>
      </trkpt>
      <trkpt lat="47.78743" lon="-2.29554">
        <ele>57</ele>
        <time>2023-11-13T09:13:36Z</time>
      </trkpt>
      <trkpt lat="47.78789" lon="-2.29402">
        <ele>57</ele>
        <time>2023-11-13T09:16:05Z</time>
      </trkpt>
      <trkpt lat="47.78829" lon="-2.2928">
        <ele>56</ele>
        <time>2023-11-13T09:18:07Z</time>
      </trkpt>
      <trkpt lat="47.78847" lon="-2.29232">
        <ele>57</ele>
        <time>2023-11-13T09:18:56Z</time>
      </trkpt>
      <trkpt lat="47.78858" lon="-2.2921">
        <ele>57</ele>
        <time>2023-11-13T09:19:21Z</time>
      </trkpt>
      <trkpt lat="47.78874" lon="-2.29161">
        <ele>59</ele>
        <time>2023-11-13T09:20:10Z</time>
      </trkpt>
      <trkpt lat="47.78886" lon="-2.29139">
        <ele>59</ele>
        <time>2023-11-13T09:20:35Z</time>
      </trkpt>
      <trkpt lat="47.78914" lon="-2.29068">
        <ele>60</ele>
        <time>2023-11-13T09:21:49Z</time>
      </trkpt>
      <trkpt lat="47.78946" lon="-2.29">
        <ele>61</ele>
        <time>2023-11-13T09:23:03Z</time>
      </trkpt>
      <trkpt lat="47.78994" lon="-2.28882">
        <ele>61</ele>
        <time>2023-11-13T09:25:07Z</time>
      </trkpt>
      <trkpt lat="47.79159" lon="-2.28926">
        <ele>53</ele>
        <time>2023-11-13T09:28:51Z</time>
      </trkpt>
      <trkpt lat="47.79194" lon="-2.2894">
        <ele>53</ele>
        <time>2023-11-13T09:29:39Z</time>
      </trkpt>
      <trkpt lat="47.79212" lon="-2.28941">
        <ele>54</ele>
        <time>2023-11-13T09:30:03Z</time>
      </trkpt>
      <trkpt lat="47.79248" lon="-2.28955">
        <ele>54</ele>
        <time>2023-11-13T09:30:53Z</time>
      </trkpt>
      <trkpt lat="47.79339" lon="-2.28983">
        <ele>57</ele>
        <time>2023-11-13T09:32:57Z</time>
      </trkpt>
      <trkpt lat="47.79395" lon="-2.28998">
        <ele>59</ele>
        <time>2023-11-13T09:34:13Z</time>
      </trkpt>
      <trkpt lat="47.79413" lon="-2.28998">
        <ele>60</ele>
        <time>2023-11-13T09:34:37Z</time>
      </trkpt>
      <trkpt lat="47.79418" lon="-2.28971">
        <ele>60</ele>
        <time>2023-11-13T09:35:02Z</time>
      </trkpt>
      <trkpt lat="47.79419" lon="-2.28888">
        <ele>62</ele>
        <time>2023-11-13T09:36:16Z</time>
      </trkpt>
      <trkpt lat="47.79416" lon="-2.28833">
        <ele>64</ele>
        <time>2023-11-13T09:37:06Z</time>
      </trkpt>
      <trkpt lat="47.79426" lon="-2.2881">
        <ele>65</ele>
        <time>2023-11-13T09:37:30Z</time>
      </trkpt>
      <trkpt lat="47.79445" lon="-2.28806">
        <ele>65</ele>
        <time>2023-11-13T09:37:56Z</time>
      </trkpt>
      <trkpt lat="47.79477" lon="-2.2878">
        <ele>65</ele>
        <time>2023-11-13T09:38:44Z</time>
      </trkpt>
      <trkpt lat="47.79488" lon="-2.28758">
        <ele>65</ele>
        <time>2023-11-13T09:39:09Z</time>
      </trkpt>
      <trkpt lat="47.79511" lon="-2.28684">
        <ele>65</ele>
        <time>2023-11-13T09:40:22Z</time>
      </trkpt>
      <trkpt lat="47.79512" lon="-2.28658">
        <ele>65</ele>
        <time>2023-11-13T09:40:46Z</time>
      </trkpt>
      <trkpt lat="47.79525" lon="-2.28605">
        <ele>65</ele>
        <time>2023-11-13T09:41:36Z</time>
      </trkpt>
      <trkpt lat="47.79522" lon="-2.28578">
        <ele>66</ele>
        <time>2023-11-13T09:42:01Z</time>
      </trkpt>
      <trkpt lat="47.79504" lon="-2.28579">
        <ele>68</ele>
        <time>2023-11-13T09:42:25Z</time>
      </trkpt>
      <trkpt lat="47.79486" lon="-2.28586">
        <ele>68</ele>
        <time>2023-11-13T09:42:49Z</time>
      </trkpt>
      <trkpt lat="47.79468" lon="-2.28594">
        <ele>69</ele>
        <time>2023-11-13T09:43:15Z</time>
      </trkpt>
      <trkpt lat="47.79453" lon="-2.28608">
        <ele>69</ele>
        <time>2023-11-13T09:43:38Z</time>
      </trkpt>
      <trkpt lat="47.79435" lon="-2.286">
        <ele>69</ele>
        <time>2023-11-13T09:44:03Z</time>
      </trkpt>
      <trkpt lat="47.7942" lon="-2.28582">
        <ele>70</ele>
        <time>2023-11-13T09:44:29Z</time>
      </trkpt>
      <trkpt lat="47.79403" lon="-2.28534">
        <ele>70</ele>
        <time>2023-11-13T09:45:18Z</time>
      </trkpt>
      <trkpt lat="47.79371" lon="-2.28508">
        <ele>68</ele>
        <time>2023-11-13T09:46:06Z</time>
      </trkpt>
      <trkpt lat="47.79335" lon="-2.28487">
        <ele>65</ele>
        <time>2023-11-13T09:46:58Z</time>
      </trkpt>
      <trkpt lat="47.79267" lon="-2.28439">
        <ele>64</ele>
        <time>2023-11-13T09:48:38Z</time>
      </trkpt>
      <trkpt lat="47.79215" lon="-2.28407">
        <ele>63</ele>
        <time>2023-11-13T09:49:53Z</time>
      </trkpt>
      <trkpt lat="47.79198" lon="-2.28394">
        <ele>63</ele>
        <time>2023-11-13T09:50:19Z</time>
      </trkpt>
      <trkpt lat="47.79129" lon="-2.2835">
        <ele>68</ele>
        <time>2023-11-13T09:51:59Z</time>
      </trkpt>
      <trkpt lat="47.79094" lon="-2.28332">
        <ele>72</ele>
        <time>2023-11-13T09:52:48Z</time>
      </trkpt>
      <trkpt lat="47.79044" lon="-2.28298">
        <ele>77</ele>
        <time>2023-11-13T09:54:02Z</time>
      </trkpt>
      <trkpt lat="47.79025" lon="-2.28297">
        <ele>80</ele>
        <time>2023-11-13T09:54:27Z</time>
      </trkpt>
      <trkpt lat="47.79025" lon="-2.28324">
        <ele>79</ele>
        <time>2023-11-13T09:54:51Z</time>
      </trkpt>
      <trkpt lat="47.79023" lon="-2.28306">
        <ele>80</ele>
        <time>2023-11-13T09:55:08Z</time>
      </trkpt>
      <trkpt lat="47.79026" lon="-2.2825">
        <ele>80</ele>
        <time>2023-11-13T09:55:58Z</time>
      </trkpt>
      <trkpt lat="47.79019" lon="-2.28224">
        <ele>82</ele>
        <time>2023-11-13T09:56:23Z</time>
      </trkpt>
      <trkpt lat="47.79021" lon="-2.28196">
        <ele>82</ele>
        <time>2023-11-13T09:56:48Z</time>
      </trkpt>
      <trkpt lat="47.79015" lon="-2.2817">
        <ele>83</ele>
        <time>2023-11-13T09:57:13Z</time>
      </trkpt>
      <trkpt lat="47.7902" lon="-2.28144">
        <ele>83</ele>
        <time>2023-11-13T09:57:37Z</time>
      </trkpt>
      <trkpt lat="47.79014" lon="-2.28117">
        <ele>85</ele>
        <time>2023-11-13T09:58:03Z</time>
      </trkpt>
      <trkpt lat="47.79011" lon="-2.28034">
        <ele>86</ele>
        <time>2023-11-13T09:59:17Z</time>
      </trkpt>
      <trkpt lat="47.79008" lon="-2.28007">
        <ele>86</ele>
        <time>2023-11-13T09:59:42Z</time>
      </trkpt>
      <trkpt lat="47.79012" lon="-2.27981">
        <ele>85</ele>
        <time>2023-11-13T10:00:06Z</time>
      </trkpt>
      <trkpt lat="47.79008" lon="-2.27925">
        <ele>84</ele>
        <time>2023-11-13T10:00:56Z</time>
      </trkpt>
      <trkpt lat="47.7901" lon="-2.27842">
        <ele>80</ele>
        <time>2023-11-13T10:02:11Z</time>
      </trkpt>
      <trkpt lat="47.79006" lon="-2.27816">
        <ele>79</ele>
        <time>2023-11-13T10:02:35Z</time>
      </trkpt>
      <trkpt lat="47.79007" lon="-2.27789">
        <ele>78</ele>
        <time>2023-11-13T10:02:59Z</time>
      </trkpt>
      <trkpt lat="47.79004" lon="-2.27733">
        <ele>77</ele>
        <time>2023-11-13T10:03:49Z</time>
      </trkpt>
      <trkpt lat="47.79008" lon="-2.27706">
        <ele>75</ele>
        <time>2023-11-13T10:04:14Z</time>
      </trkpt>
      <trkpt lat="47.79019" lon="-2.27685">
        <ele>74</ele>
        <time>2023-11-13T10:04:38Z</time>
      </trkpt>
      <trkpt lat="47.79013" lon="-2.27659">
        <ele>74</ele>
        <time>2023-11-13T10:05:03Z</time>
      </trkpt>
      <trkpt lat="47.78984" lon="-2.27627">
        <ele>79</ele>
        <time>2023-11-13T10:05:51Z</time>
      </trkpt>
      <trkpt lat="47.78958" lon="-2.27587">
        <ele>83</ele>
        <time>2023-11-13T10:06:41Z</time>
      </trkpt>
      <trkpt lat="47.78951" lon="-2.27562">
        <ele>84</ele>
        <time>2023-11-13T10:07:05Z</time>
      </trkpt>
      <trkpt lat="47.7894" lon="-2.27538">
        <ele>85</ele>
        <time>2023-11-13T10:07:31Z</time>
      </trkpt>
      <trkpt lat="47.78926" lon="-2.2752">
        <ele>87</ele>
        <time>2023-11-13T10:07:56Z</time>
      </trkpt>
      <trkpt lat="47.789" lon="-2.27449">
        <ele>92</ele>
        <time>2023-11-13T10:09:08Z</time>
      </trkpt>
      <trkpt lat="47.78887" lon="-2.27428">
        <ele>94</ele>
        <time>2023-11-13T10:09:34Z</time>
      </trkpt>
      <trkpt lat="47.78861" lon="-2.27354">
        <ele>96</ele>
        <time>2023-11-13T10:10:49Z</time>
      </trkpt>
      <trkpt lat="47.78847" lon="-2.27336">
        <ele>96</ele>
        <time>2023-11-13T10:11:13Z</time>
      </trkpt>
      <trkpt lat="47.78836" lon="-2.27314">
        <ele>97</ele>
        <time>2023-11-13T10:11:38Z</time>
      </trkpt>
      <trkpt lat="47.7883" lon="-2.27286">
        <ele>97</ele>
        <time>2023-11-13T10:12:04Z</time>
      </trkpt>
      <trkpt lat="47.78819" lon="-2.27263">
        <ele>98</ele>
        <time>2023-11-13T10:12:30Z</time>
      </trkpt>
      <trkpt lat="47.78812" lon="-2.27236">
        <ele>98</ele>
        <time>2023-11-13T10:12:56Z</time>
      </trkpt>
      <trkpt lat="47.78802" lon="-2.27212">
        <ele>99</ele>
        <time>2023-11-13T10:13:21Z</time>
      </trkpt>
      <trkpt lat="47.78766" lon="-2.27148">
        <ele>100</ele>
        <time>2023-11-13T10:14:36Z</time>
      </trkpt>
      <trkpt lat="47.78725" lon="-2.27059">
        <ele>100</ele>
        <time>2023-11-13T10:16:12Z</time>
      </trkpt>
      <trkpt lat="47.78709" lon="-2.27045">
        <ele>100</ele>
        <time>2023-11-13T10:16:37Z</time>
      </trkpt>
      <trkpt lat="47.78692" lon="-2.27036">
        <ele>99</ele>
        <time>2023-11-13T10:17:01Z</time>
      </trkpt>
      <trkpt lat="47.78709" lon="-2.27041">
        <ele>99</ele>
        <time>2023-11-13T10:17:24Z</time>
      </trkpt>
      <trkpt lat="47.78692" lon="-2.27089">
        <ele>100</ele>
        <time>2023-11-13T10:18:13Z</time>
      </trkpt>
      <trkpt lat="47.78687" lon="-2.27116">
        <ele>100</ele>
        <time>2023-11-13T10:18:38Z</time>
      </trkpt>
      <trkpt lat="47.78653" lon="-2.27212">
        <ele>100</ele>
        <time>2023-11-13T10:20:16Z</time>
      </trkpt>
      <trkpt lat="47.78641" lon="-2.27265">
        <ele>99</ele>
        <time>2023-11-13T10:21:06Z</time>
      </trkpt>
      <trkpt lat="47.78617" lon="-2.27341">
        <ele>97</ele>
        <time>2023-11-13T10:22:21Z</time>
      </trkpt>
      <trkpt lat="47.78612" lon="-2.27367">
        <ele>98</ele>
        <time>2023-11-13T10:22:45Z</time>
      </trkpt>
      <trkpt lat="47.78591" lon="-2.27444">
        <ele>98</ele>
        <time>2023-11-13T10:24:00Z</time>
      </trkpt>
      <trkpt lat="47.78575" lon="-2.27493">
        <ele>98</ele>
        <time>2023-11-13T10:24:49Z</time>
      </trkpt>
      <trkpt lat="47.78562" lon="-2.27514">
        <ele>97</ele>
        <time>2023-11-13T10:25:14Z</time>
      </trkpt>
      <trkpt lat="47.78534" lon="-2.27616">
        <ele>97</ele>
        <time>2023-11-13T10:26:53Z</time>
      </trkpt>
      <trkpt lat="47.78505" lon="-2.27687">
        <ele>96</ele>
        <time>2023-11-13T10:28:07Z</time>
      </trkpt>
      <trkpt lat="47.78482" lon="-2.2776">
        <ele>97</ele>
        <time>2023-11-13T10:29:20Z</time>
      </trkpt>
      <trkpt lat="47.78472" lon="-2.27783">
        <ele>97</ele>
        <time>2023-11-13T10:29:44Z</time>
      </trkpt>
      <trkpt lat="47.7846" lon="-2.27835">
        <ele>97</ele>
        <time>2023-11-13T10:30:34Z</time>
      </trkpt>
      <trkpt lat="47.78427" lon="-2.27936">
        <ele>96</ele>
        <time>2023-11-13T10:32:14Z</time>
      </trkpt>
      <trkpt lat="47.78417" lon="-2.27959">
        <ele>95</ele>
        <time>2023-11-13T10:32:39Z</time>
      </trkpt>
      <trkpt lat="47.78403" lon="-2.28011">
        <ele>94</ele>
        <time>2023-11-13T10:33:29Z</time>
      </trkpt>
      <trkpt lat="47.78393" lon="-2.28036">
        <ele>95</ele>
        <time>2023-11-13T10:33:55Z</time>
      </trkpt>
      <trkpt lat="47.7838" lon="-2.28087">
        <ele>97</ele>
        <time>2023-11-13T10:34:44Z</time>
      </trkpt>
      <trkpt lat="47.78368" lon="-2.2811">
        <ele>97</ele>
        <time>2023-11-13T10:35:10Z</time>
      </trkpt>
      <trkpt lat="47.78344" lon="-2.28185">
        <ele>99</ele>
        <time>2023-11-13T10:36:25Z</time>
      </trkpt>
      <trkpt lat="47.78314" lon="-2.28314">
        <ele>99</ele>
        <time>2023-11-13T10:38:27Z</time>
      </trkpt>
      <trkpt lat="47.7831" lon="-2.28341">
        <ele>99</ele>
        <time>2023-11-13T10:38:52Z</time>
      </trkpt>
      <trkpt lat="47.78301" lon="-2.28365">
        <ele>99</ele>
        <time>2023-11-13T10:39:17Z</time>
      </trkpt>
      <trkpt lat="47.78287" lon="-2.28417">
        <ele>100</ele>
        <time>2023-11-13T10:40:07Z</time>
      </trkpt>
      <trkpt lat="47.78269" lon="-2.28494">
        <ele>99</ele>
        <time>2023-11-13T10:41:20Z</time>
      </trkpt>
      <trkpt lat="47.7826" lon="-2.28549">
        <ele>99</ele>
        <time>2023-11-13T10:42:11Z</time>
      </trkpt>
      <trkpt lat="47.78251" lon="-2.28572">
        <ele>100</ele>
        <time>2023-11-13T10:42:35Z</time>
      </trkpt>
      <trkpt lat="47.78246" lon="-2.28599">
        <ele>100</ele>
        <time>2023-11-13T10:43:00Z</time>
      </trkpt>
      <trkpt lat="47.78237" lon="-2.28623">
        <ele>100</ele>
        <time>2023-11-13T10:43:24Z</time>
      </trkpt>
      <trkpt lat="47.78219" lon="-2.28701">
        <ele>100</ele>
        <time>2023-11-13T10:44:38Z</time>
      </trkpt>
      <trkpt lat="47.78206" lon="-2.28721">
        <ele>101</ele>
        <time>2023-11-13T10:45:03Z</time>
      </trkpt>
      <trkpt lat="47.78189" lon="-2.28709">
        <ele>102</ele>
        <time>2023-11-13T10:45:28Z</time>
      </trkpt>
      <trkpt lat="47.78153" lon="-2.28699">
        <ele>103</ele>
        <time>2023-11-13T10:46:17Z</time>
      </trkpt>
      <trkpt lat="47.78004" lon="-2.28667">
        <ele>93</ele>
        <time>2023-11-13T10:49:38Z</time>
      </trkpt>
      <trkpt lat="47.77969" lon="-2.28654">
        <ele>90</ele>
        <time>2023-11-13T10:50:26Z</time>
      </trkpt>
      <trkpt lat="47.77859" lon="-2.28629">
        <ele>81</ele>
        <time>2023-11-13T10:52:55Z</time>
      </trkpt>
      <trkpt lat="47.7784" lon="-2.28627">
        <ele>80</ele>
        <time>2023-11-13T10:53:20Z</time>
      </trkpt>
      <trkpt lat="47.77804" lon="-2.28614">
        <ele>80</ele>
        <time>2023-11-13T10:54:10Z</time>
      </trkpt>
      <trkpt lat="47.77767" lon="-2.28608">
        <ele>79</ele>
        <time>2023-11-13T10:54:59Z</time>
      </trkpt>
      <trkpt lat="47.77731" lon="-2.28591">
        <ele>79</ele>
        <time>2023-11-13T10:55:50Z</time>
      </trkpt>
      <trkpt lat="47.77642" lon="-2.28556">
        <ele>80</ele>
        <time>2023-11-13T10:57:52Z</time>
      </trkpt>
      <trkpt lat="47.77624" lon="-2.28551">
        <ele>81</ele>
        <time>2023-11-13T10:58:17Z</time>
      </trkpt>
      <trkpt lat="47.7757" lon="-2.28528">
        <ele>84</ele>
        <time>2023-11-13T10:59:32Z</time>
      </trkpt>
      <trkpt lat="47.77553" lon="-2.28539">
        <ele>85</ele>
        <time>2023-11-13T10:59:57Z</time>
      </trkpt>
      <trkpt lat="47.77541" lon="-2.28592">
        <ele>87</ele>
        <time>2023-11-13T11:00:47Z</time>
      </trkpt>
      <trkpt lat="47.77531" lon="-2.28616">
        <ele>88</ele>
        <time>2023-11-13T11:01:12Z</time>
      </trkpt>
      <trkpt lat="47.77516" lon="-2.28667">
        <ele>89</ele>
        <time>2023-11-13T11:02:02Z</time>
      </trkpt>
      <trkpt lat="47.77504" lon="-2.28689">
        <ele>88</ele>
        <time>2023-11-13T11:02:27Z</time>
      </trkpt>
      <trkpt lat="47.77477" lon="-2.2876">
        <ele>85</ele>
        <time>2023-11-13T11:03:41Z</time>
      </trkpt>
      <trkpt lat="47.77426" lon="-2.2891">
        <ele>90</ele>
        <time>2023-11-13T11:06:11Z</time>
      </trkpt>
      <trkpt lat="47.77421" lon="-2.28936">
        <ele>91</ele>
        <time>2023-11-13T11:06:36Z</time>
      </trkpt>
      <trkpt lat="47.77419" lon="-2.2899">
        <ele>90</ele>
        <time>2023-11-13T11:07:24Z</time>
      </trkpt>
      <trkpt lat="47.77422" lon="-2.29018">
        <ele>89</ele>
        <time>2023-11-13T11:07:50Z</time>
      </trkpt>
      <trkpt lat="47.77422" lon="-2.29072">
        <ele>87</ele>
        <time>2023-11-13T11:08:38Z</time>
      </trkpt>
      <trkpt lat="47.77419" lon="-2.291">
        <ele>86</ele>
        <time>2023-11-13T11:09:03Z</time>
      </trkpt>
      <trkpt lat="47.7741" lon="-2.29125">
        <ele>85</ele>
        <time>2023-11-13T11:09:29Z</time>
      </trkpt>
      <trkpt lat="47.77384" lon="-2.29227">
        <ele>84</ele>
        <time>2023-11-13T11:11:07Z</time>
      </trkpt>
      <trkpt lat="47.7734" lon="-2.29496">
        <ele>86</ele>
        <time>2023-11-13T11:15:15Z</time>
      </trkpt>
      <trkpt lat="47.77307" lon="-2.29654">
        <ele>85</ele>
        <time>2023-11-13T11:17:43Z</time>
      </trkpt>
      <trkpt lat="47.77294" lon="-2.29819">
        <ele>85</ele>
        <time>2023-11-13T11:20:12Z</time>
      </trkpt>
      <trkpt lat="47.7729" lon="-2.29846">
        <ele>84</ele>
        <time>2023-11-13T11:20:37Z</time>
      </trkpt>
      <trkpt lat="47.77283" lon="-2.29871">
        <ele>84</ele>
        <time>2023-11-13T11:21:01Z</time>
      </trkpt>
      <trkpt lat="47.7725" lon="-2.29899">
        <ele>84</ele>
        <time>2023-11-13T11:21:52Z</time>
      </trkpt>
      <trkpt lat="47.77215" lon="-2.29921">
        <ele>84</ele>
        <time>2023-11-13T11:22:43Z</time>
      </trkpt>
      <trkpt lat="47.77203" lon="-2.29942">
        <ele>84</ele>
        <time>2023-11-13T11:23:08Z</time>
      </trkpt>
      <trkpt lat="47.77207" lon="-2.2997">
        <ele>85</ele>
        <time>2023-11-13T11:23:33Z</time>
      </trkpt>
      <trkpt lat="47.7721" lon="-2.30189">
        <ele>83</ele>
        <time>2023-11-13T11:26:50Z</time>
      </trkpt>
      <trkpt lat="47.77208" lon="-2.30216">
        <ele>82</ele>
        <time>2023-11-13T11:27:14Z</time>
      </trkpt>
      <trkpt lat="47.77193" lon="-2.30233">
        <ele>81</ele>
        <time>2023-11-13T11:27:39Z</time>
      </trkpt>
      <trkpt lat="47.77189" lon="-2.30259">
        <ele>80</ele>
        <time>2023-11-13T11:28:03Z</time>
      </trkpt>
      <trkpt lat="47.77195" lon="-2.30397">
        <ele>77</ele>
        <time>2023-11-13T11:30:07Z</time>
      </trkpt>
      <trkpt lat="47.77193" lon="-2.30482">
        <ele>77</ele>
        <time>2023-11-13T11:31:23Z</time>
      </trkpt>
      <trkpt lat="47.77186" lon="-2.30537">
        <ele>75</ele>
        <time>2023-11-13T11:32:14Z</time>
      </trkpt>
      <trkpt lat="47.77185" lon="-2.30563">
        <ele>74</ele>
        <time>2023-11-13T11:32:37Z</time>
      </trkpt>
      <trkpt lat="47.77196" lon="-2.30586">
        <ele>73</ele>
        <time>2023-11-13T11:33:02Z</time>
      </trkpt>
      <trkpt lat="47.77183" lon="-2.30606">
        <ele>73</ele>
        <time>2023-11-13T11:33:27Z</time>
      </trkpt>
      <trkpt lat="47.77179" lon="-2.30632">
        <ele>73</ele>
        <time>2023-11-13T11:33:51Z</time>
      </trkpt>
      <trkpt lat="47.77176" lon="-2.30715">
        <ele>72</ele>
        <time>2023-11-13T11:35:06Z</time>
      </trkpt>
      <trkpt lat="47.7717" lon="-2.3074">
        <ele>71</ele>
        <time>2023-11-13T11:35:30Z</time>
      </trkpt>
      <trkpt lat="47.77144" lon="-2.30812">
        <ele>69</ele>
        <time>2023-11-13T11:36:43Z</time>
      </trkpt>
      <trkpt lat="47.77133" lon="-2.30835">
        <ele>67</ele>
        <time>2023-11-13T11:37:08Z</time>
      </trkpt>
      <trkpt lat="47.77126" lon="-2.30861">
        <ele>65</ele>
        <time>2023-11-13T11:37:33Z</time>
      </trkpt>
      <trkpt lat="47.7712" lon="-2.30916">
        <ele>62</ele>
        <time>2023-11-13T11:38:23Z</time>
      </trkpt>
      <trkpt lat="47.77104" lon="-2.30994">
        <ele>56</ele>
        <time>2023-11-13T11:39:36Z</time>
      </trkpt>
      <trkpt lat="47.77097" lon="-2.31076">
        <ele>51</ele>
        <time>2023-11-13T11:40:51Z</time>
      </trkpt>
      <trkpt lat="47.77092" lon="-2.31103">
        <ele>50</ele>
        <time>2023-11-13T11:41:16Z</time>
      </trkpt>
      <trkpt lat="47.77074" lon="-2.31111">
        <ele>49</ele>
        <time>2023-11-13T11:41:41Z</time>
      </trkpt>
      <trkpt lat="47.77037" lon="-2.31105">
        <ele>48</ele>
        <time>2023-11-13T11:42:30Z</time>
      </trkpt>
      <trkpt lat="47.77025" lon="-2.31054">
        <ele>48</ele>
        <time>2023-11-13T11:43:19Z</time>
      </trkpt>
      <trkpt lat="47.77015" lon="-2.31031">
        <ele>46</ele>
        <time>2023-11-13T11:43:43Z</time>
      </trkpt>
      <trkpt lat="47.77" lon="-2.31015">
        <ele>45</ele>
        <time>2023-11-13T11:44:08Z</time>
      </trkpt>
      <trkpt lat="47.76981" lon="-2.3101">
        <ele>43</ele>
        <time>2023-11-13T11:44:34Z</time>
      </trkpt>
      <trkpt lat="47.76964" lon="-2.31017">
        <ele>41</ele>
        <time>2023-11-13T11:44:57Z</time>
      </trkpt>
      <trkpt lat="47.76947" lon="-2.3103">
        <ele>40</ele>
        <time>2023-11-13T11:45:23Z</time>
      </trkpt>
      <trkpt lat="47.76928" lon="-2.31028">
        <ele>38</ele>
        <time>2023-11-13T11:45:48Z</time>
      </trkpt>
      <trkpt lat="47.76892" lon="-2.31017">
        <ele>35</ele>
        <time>2023-11-13T11:46:37Z</time>
      </trkpt>
      <trkpt lat="47.76818" lon="-2.31016">
        <ele>31</ele>
        <time>2023-11-13T11:48:16Z</time>
      </trkpt>
      <trkpt lat="47.768" lon="-2.31013">
        <ele>31</ele>
        <time>2023-11-13T11:48:40Z</time>
      </trkpt>
      <trkpt lat="47.76783" lon="-2.31005">
        <ele>31</ele>
        <time>2023-11-13T11:49:04Z</time>
      </trkpt>
      <trkpt lat="47.76764" lon="-2.31003">
        <ele>30</ele>
        <time>2023-11-13T11:49:29Z</time>
      </trkpt>
      <trkpt lat="47.76746" lon="-2.3101">
        <ele>29</ele>
        <time>2023-11-13T11:49:54Z</time>
      </trkpt>
      <trkpt lat="47.76738" lon="-2.31035">
        <ele>28</ele>
        <time>2023-11-13T11:50:19Z</time>
      </trkpt>
      <trkpt lat="47.76737" lon="-2.31063">
        <ele>26</ele>
        <time>2023-11-13T11:50:44Z</time>
      </trkpt>
      <trkpt lat="47.76741" lon="-2.31091">
        <ele>25</ele>
        <time>2023-11-13T11:51:10Z</time>
      </trkpt>
      <trkpt lat="47.76758" lon="-2.3117">
        <ele>21</ele>
        <time>2023-11-13T11:52:24Z</time>
      </trkpt>
      <trkpt lat="47.76766" lon="-2.31195">
        <ele>19</ele>
        <time>2023-11-13T11:52:49Z</time>
      </trkpt>
      <trkpt lat="47.76822" lon="-2.31305">
        <ele>13</ele>
        <time>2023-11-13T11:54:53Z</time>
      </trkpt>
      <trkpt lat="47.76831" lon="-2.31328">
        <ele>11</ele>
        <time>2023-11-13T11:55:17Z</time>
      </trkpt>
      <trkpt lat="47.76846" lon="-2.31344">
        <ele>12</ele>
        <time>2023-11-13T11:55:41Z</time>
      </trkpt>
      <trkpt lat="47.76881" lon="-2.31364">
        <ele>13</ele>
        <time>2023-11-13T11:56:31Z</time>
      </trkpt>
      <trkpt lat="47.76916" lon="-2.31375">
        <ele>14</ele>
        <time>2023-11-13T11:57:19Z</time>
      </trkpt>
      <trkpt lat="47.76935" lon="-2.31377">
        <ele>15</ele>
        <time>2023-11-13T11:57:45Z</time>
      </trkpt>
      <trkpt lat="47.76953" lon="-2.31383">
        <ele>16</ele>
        <time>2023-11-13T11:58:09Z</time>
      </trkpt>
      <trkpt lat="47.76988" lon="-2.31403">
        <ele>15</ele>
        <time>2023-11-13T11:58:59Z</time>
      </trkpt>
      <trkpt lat="47.76997" lon="-2.31426">
        <ele>12</ele>
        <time>2023-11-13T11:59:23Z</time>
      </trkpt>
      <trkpt lat="47.77001" lon="-2.31453">
        <ele>11</ele>
        <time>2023-11-13T11:59:48Z</time>
      </trkpt>
      <trkpt lat="47.77003" lon="-2.31481">
        <ele>10</ele>
        <time>2023-11-13T12:00:13Z</time>
      </trkpt>
      <trkpt lat="47.77002" lon="-2.31562">
        <ele>9</ele>
        <time>2023-11-13T12:01:26Z</time>
      </trkpt>
      <trkpt lat="47.77008" lon="-2.31588">
        <ele>9</ele>
        <time>2023-11-13T12:01:50Z</time>
      </trkpt>
      <trkpt lat="47.77022" lon="-2.31571">
        <ele>9</ele>
        <time>2023-11-13T12:02:15Z</time>
      </trkpt>
      <trkpt lat="47.77004" lon="-2.31565">
        <ele>9</ele>
        <time>2023-11-13T12:02:39Z</time>
      </trkpt>
      <trkpt lat="47.76987" lon="-2.31566">
        <ele>9</ele>
        <time>2023-11-13T12:03:02Z</time>
      </trkpt>
      <trkpt lat="47.76969" lon="-2.31573">
        <ele>9</ele>
        <time>2023-11-13T12:03:27Z</time>
      </trkpt>
      <trkpt lat="47.76987" lon="-2.31568">
        <ele>9</ele>
        <time>2023-11-13T12:03:51Z</time>
      </trkpt>
      <trkpt lat="47.77005" lon="-2.31559">
        <ele>9</ele>
        <time>2023-11-13T12:04:17Z</time>
      </trkpt>
      <trkpt lat="47.77016" lon="-2.31581">
        <ele>9</ele>
        <time>2023-11-13T12:04:41Z</time>
      </trkpt>
      <trkpt lat="47.77003" lon="-2.31601">
        <ele>10</ele>
        <time>2023-11-13T12:05:06Z</time>
      </trkpt>
      <trkpt lat="47.77006" lon="-2.31657">
        <ele>13</ele>
        <time>2023-11-13T12:05:56Z</time>
      </trkpt>
      <trkpt lat="47.77002" lon="-2.31603">
        <ele>10</ele>
        <time>2023-11-13T12:06:45Z</time>
      </trkpt>
      <trkpt lat="47.77016" lon="-2.31584">
        <ele>9</ele>
        <time>2023-11-13T12:07:10Z</time>
      </trkpt>
      <trkpt lat="47.77052" lon="-2.31579">
        <ele>10</ele>
        <time>2023-11-13T12:07:59Z</time>
      </trkpt>
      <trkpt lat="47.77066" lon="-2.3156">
        <ele>10</ele>
        <time>2023-11-13T12:08:24Z</time>
      </trkpt>
      <trkpt lat="47.77101" lon="-2.31545">
        <ele>11</ele>
        <time>2023-11-13T12:09:13Z</time>
      </trkpt>
      <trkpt lat="47.77119" lon="-2.31543">
        <ele>11</ele>
        <time>2023-11-13T12:09:37Z</time>
      </trkpt>
      <trkpt lat="47.77138" lon="-2.31548">
        <ele>12</ele>
        <time>2023-11-13T12:10:02Z</time>
      </trkpt>
      <trkpt lat="47.77211" lon="-2.31529">
        <ele>11</ele>
        <time>2023-11-13T12:11:41Z</time>
      </trkpt>
      <trkpt lat="47.7723" lon="-2.3153">
        <ele>11</ele>
        <time>2023-11-13T12:12:07Z</time>
      </trkpt>
      <trkpt lat="47.77249" lon="-2.31526">
        <ele>10</ele>
        <time>2023-11-13T12:12:32Z</time>
      </trkpt>
      <trkpt lat="47.77286" lon="-2.31514">
        <ele>10</ele>
        <time>2023-11-13T12:13:23Z</time>
      </trkpt>
      <trkpt lat="47.77304" lon="-2.31519">
        <ele>10</ele>
        <time>2023-11-13T12:13:47Z</time>
      </trkpt>
      <trkpt lat="47.77322" lon="-2.31517">
        <ele>10</ele>
        <time>2023-11-13T12:14:11Z</time>
      </trkpt>
      <trkpt lat="47.77341" lon="-2.31514">
        <ele>10</ele>
        <time>2023-11-13T12:14:37Z</time>
      </trkpt>
      <trkpt lat="47.77359" lon="-2.31507">
        <ele>10</ele>
        <time>2023-11-13T12:15:02Z</time>
      </trkpt>
      <trkpt lat="47.77432" lon="-2.31492">
        <ele>11</ele>
        <time>2023-11-13T12:16:40Z</time>
      </trkpt>
      <trkpt lat="47.77524" lon="-2.31477">
        <ele>11</ele>
        <time>2023-11-13T12:18:44Z</time>
      </trkpt>
      <trkpt lat="47.77579" lon="-2.31464">
        <ele>11</ele>
        <time>2023-11-13T12:19:58Z</time>
      </trkpt>
      <trkpt lat="47.77615" lon="-2.3145">
        <ele>12</ele>
        <time>2023-11-13T12:20:48Z</time>
      </trkpt>
      <trkpt lat="47.77672" lon="-2.31442">
        <ele>11</ele>
        <time>2023-11-13T12:22:04Z</time>
      </trkpt>
      <trkpt lat="47.77745" lon="-2.31416">
        <ele>12</ele>
        <time>2023-11-13T12:23:44Z</time>
      </trkpt>
      <trkpt lat="47.7778" lon="-2.31399">
        <ele>13</ele>
        <time>2023-11-13T12:24:33Z</time>
      </trkpt>
      <trkpt lat="47.77835" lon="-2.31386">
        <ele>13</ele>
        <time>2023-11-13T12:25:48Z</time>
      </trkpt>
      <trkpt lat="47.77854" lon="-2.3139">
        <ele>12</ele>
        <time>2023-11-13T12:26:13Z</time>
      </trkpt>
      <trkpt lat="47.77872" lon="-2.31401">
        <ele>11</ele>
        <time>2023-11-13T12:26:39Z</time>
      </trkpt>
      <trkpt lat="47.77954" lon="-2.31468">
        <ele>9</ele>
        <time>2023-11-13T12:28:44Z</time>
      </trkpt>
      <trkpt lat="47.78047" lon="-2.31556">
        <ele>9</ele>
        <time>2023-11-13T12:31:11Z</time>
      </trkpt>
      <trkpt lat="47.78081" lon="-2.31581">
        <ele>9</ele>
        <time>2023-11-13T12:32:02Z</time>
      </trkpt>
      <trkpt lat="47.78168" lon="-2.31633">
        <ele>8</ele>
        <time>2023-11-13T12:34:07Z</time>
      </trkpt>
      <trkpt lat="47.78259" lon="-2.3166">
        <ele>11</ele>
        <time>2023-11-13T12:36:11Z</time>
      </trkpt>
      <trkpt lat="47.78365" lon="-2.31715">
        <ele>11</ele>
        <time>2023-11-13T12:38:40Z</time>
      </trkpt>
      <trkpt lat="47.78382" lon="-2.31727">
        <ele>11</ele>
        <time>2023-11-13T12:39:05Z</time>
      </trkpt>
      <trkpt lat="47.78418" lon="-2.31742">
        <ele>11</ele>
        <time>2023-11-13T12:39:55Z</time>
      </trkpt>
      <trkpt lat="47.78452" lon="-2.31762">
        <ele>10</ele>
        <time>2023-11-13T12:40:44Z</time>
      </trkpt>
      <trkpt lat="47.78506" lon="-2.31789">
        <ele>9</ele>
        <time>2023-11-13T12:42:00Z</time>
      </trkpt>
      <trkpt lat="47.7854" lon="-2.3181">
        <ele>10</ele>
        <time>2023-11-13T12:42:49Z</time>
      </trkpt>
      <trkpt lat="47.78559" lon="-2.31814">
        <ele>10</ele>
        <time>2023-11-13T12:43:15Z</time>
      </trkpt>
      <trkpt lat="47.78592" lon="-2.31843">
        <ele>10</ele>
        <time>2023-11-13T12:44:06Z</time>
      </trkpt>
      <trkpt lat="47.78606" lon="-2.31861">
        <ele>11</ele>
        <time>2023-11-13T12:44:31Z</time>
      </trkpt>
      <trkpt lat="47.78642" lon="-2.31877">
        <ele>11</ele>
        <time>2023-11-13T12:45:21Z</time>
      </trkpt>
      <trkpt lat="47.78624" lon="-2.3187">
        <ele>11</ele>
        <time>2023-11-13T12:45:46Z</time>
      </trkpt>
      <trkpt lat="47.7859" lon="-2.3185">
        <ele>10</ele>
        <time>2023-11-13T12:46:34Z</time>
      </trkpt>
      <trkpt lat="47.78557" lon="-2.31878">
        <ele>12</ele>
        <time>2023-11-13T12:47:25Z</time>
      </trkpt>
      <trkpt lat="47.78542" lon="-2.31894">
        <ele>13</ele>
        <time>2023-11-13T12:47:50Z</time>
      </trkpt>
      <trkpt lat="47.78539" lon="-2.31921">
        <ele>15</ele>
        <time>2023-11-13T12:48:14Z</time>
      </trkpt>
      <trkpt lat="47.78553" lon="-2.3194">
        <ele>16</ele>
        <time>2023-11-13T12:48:40Z</time>
      </trkpt>
      <trkpt lat="47.78584" lon="-2.31969">
        <ele>16</ele>
        <time>2023-11-13T12:49:28Z</time>
      </trkpt>
      <trkpt lat="47.78645" lon="-2.32034">
        <ele>18</ele>
        <time>2023-11-13T12:51:09Z</time>
      </trkpt>
      <trkpt lat="47.78679" lon="-2.32054">
        <ele>18</ele>
        <time>2023-11-13T12:51:57Z</time>
      </trkpt>
      <trkpt lat="47.78733" lon="-2.32073">
        <ele>18</ele>
        <time>2023-11-13T12:53:11Z</time>
      </trkpt>
      <trkpt lat="47.78717" lon="-2.32088">
        <ele>20</ele>
        <time>2023-11-13T12:53:37Z</time>
      </trkpt>
      <trkpt lat="47.78711" lon="-2.32114">
        <ele>23</ele>
        <time>2023-11-13T12:54:01Z</time>
      </trkpt>
      <trkpt lat="47.78694" lon="-2.32162">
        <ele>30</ele>
        <time>2023-11-13T12:54:50Z</time>
      </trkpt>
      <trkpt lat="47.787" lon="-2.32218">
        <ele>35</ele>
        <time>2023-11-13T12:55:41Z</time>
      </trkpt>
      <trkpt lat="47.78712" lon="-2.3227">
        <ele>38</ele>
        <time>2023-11-13T12:56:30Z</time>
      </trkpt>
      <trkpt lat="47.78728" lon="-2.3232">
        <ele>40</ele>
        <time>2023-11-13T12:57:20Z</time>
      </trkpt>
      <trkpt lat="47.78731" lon="-2.32349">
        <ele>41</ele>
        <time>2023-11-13T12:57:46Z</time>
      </trkpt>
      <trkpt lat="47.78778" lon="-2.3247">
        <ele>46</ele>
        <time>2023-11-13T12:59:51Z</time>
      </trkpt>
      <trkpt lat="47.78801" lon="-2.32513">
        <ele>49</ele>
        <time>2023-11-13T13:00:41Z</time>
      </trkpt>
      <trkpt lat="47.7883" lon="-2.32587">
        <ele>53</ele>
        <time>2023-11-13T13:01:57Z</time>
      </trkpt>
      <trkpt lat="47.78851" lon="-2.32633">
        <ele>53</ele>
        <time>2023-11-13T13:02:47Z</time>
      </trkpt>
      <trkpt lat="47.78868" lon="-2.32682">
        <ele>52</ele>
        <time>2023-11-13T13:03:37Z</time>
      </trkpt>
      <trkpt lat="47.78882" lon="-2.32734">
        <ele>52</ele>
        <time>2023-11-13T13:04:27Z</time>
      </trkpt>
      <trkpt lat="47.78892" lon="-2.32815">
        <ele>51</ele>
        <time>2023-11-13T13:05:41Z</time>
      </trkpt>
      <trkpt lat="47.7892" lon="-2.32948">
        <ele>51</ele>
        <time>2023-11-13T13:07:46Z</time>
      </trkpt>
      <trkpt lat="47.78927" lon="-2.33002">
        <ele>53</ele>
        <time>2023-11-13T13:08:35Z</time>
      </trkpt>
      <trkpt lat="47.78938" lon="-2.33053">
        <ele>56</ele>
        <time>2023-11-13T13:09:23Z</time>
      </trkpt>
      <trkpt lat="47.7893" lon="-2.33189">
        <ele>61</ele>
        <time>2023-11-13T13:11:26Z</time>
      </trkpt>
      <trkpt lat="47.78936" lon="-2.33215">
        <ele>60</ele>
        <time>2023-11-13T13:11:50Z</time>
      </trkpt>
      <trkpt lat="47.78953" lon="-2.33226">
        <ele>59</ele>
        <time>2023-11-13T13:12:15Z</time>
      </trkpt>
      <trkpt lat="47.78971" lon="-2.33233">
        <ele>57</ele>
        <time>2023-11-13T13:12:40Z</time>
      </trkpt>
      <trkpt lat="47.7899" lon="-2.33235">
        <ele>56</ele>
        <time>2023-11-13T13:13:05Z</time>
      </trkpt>
      <trkpt lat="47.79008" lon="-2.33243">
        <ele>56</ele>
        <time>2023-11-13T13:13:30Z</time>
      </trkpt>
      <trkpt lat="47.79046" lon="-2.33245">
        <ele>56</ele>
        <time>2023-11-13T13:14:21Z</time>
      </trkpt>
      <trkpt lat="47.79064" lon="-2.33235">
        <ele>56</ele>
        <time>2023-11-13T13:14:47Z</time>
      </trkpt>
      <trkpt lat="47.7908" lon="-2.3322">
        <ele>55</ele>
        <time>2023-11-13T13:15:12Z</time>
      </trkpt>
      <trkpt lat="47.791" lon="-2.33172">
        <ele>54</ele>
        <time>2023-11-13T13:16:02Z</time>
      </trkpt>
      <trkpt lat="47.79115" lon="-2.33156">
        <ele>52</ele>
        <time>2023-11-13T13:16:27Z</time>
      </trkpt>
      <trkpt lat="47.79165" lon="-2.3312">
        <ele>48</ele>
        <time>2023-11-13T13:17:41Z</time>
      </trkpt>
      <trkpt lat="47.79182" lon="-2.33111">
        <ele>46</ele>
        <time>2023-11-13T13:18:05Z</time>
      </trkpt>
      <trkpt lat="47.79236" lon="-2.3309">
        <ele>37</ele>
        <time>2023-11-13T13:19:20Z</time>
      </trkpt>
      <trkpt lat="47.79272" lon="-2.33077">
        <ele>32</ele>
        <time>2023-11-13T13:20:09Z</time>
      </trkpt>
      <trkpt lat="47.79291" lon="-2.33074">
        <ele>29</ele>
        <time>2023-11-13T13:20:35Z</time>
      </trkpt>
      <trkpt lat="47.79308" lon="-2.33065">
        <ele>27</ele>
        <time>2023-11-13T13:20:59Z</time>
      </trkpt>
      <trkpt lat="47.79339" lon="-2.32997">
        <ele>23</ele>
        <time>2023-11-13T13:22:12Z</time>
      </trkpt>
      <trkpt lat="47.79347" lon="-2.32973">
        <ele>23</ele>
        <time>2023-11-13T13:22:36Z</time>
      </trkpt>
      <trkpt lat="47.79359" lon="-2.32952">
        <ele>23</ele>
        <time>2023-11-13T13:23:01Z</time>
      </trkpt>
      <trkpt lat="47.79387" lon="-2.3288">
        <ele>18</ele>
        <time>2023-11-13T13:24:16Z</time>
      </trkpt>
      <trkpt lat="47.79391" lon="-2.32854">
        <ele>17</ele>
        <time>2023-11-13T13:24:40Z</time>
      </trkpt>
      <trkpt lat="47.79386" lon="-2.32827">
        <ele>16</ele>
        <time>2023-11-13T13:25:05Z</time>
      </trkpt>
      <trkpt lat="47.79353" lon="-2.32802">
        <ele>17</ele>
        <time>2023-11-13T13:25:54Z</time>
      </trkpt>
      <trkpt lat="47.79341" lon="-2.32782">
        <ele>17</ele>
        <time>2023-11-13T13:26:18Z</time>
      </trkpt>
      <trkpt lat="47.79347" lon="-2.32755">
        <ele>16</ele>
        <time>2023-11-13T13:26:44Z</time>
      </trkpt>
      <trkpt lat="47.79346" lon="-2.32728">
        <ele>15</ele>
        <time>2023-11-13T13:27:08Z</time>
      </trkpt>
      <trkpt lat="47.79337" lon="-2.32674">
        <ele>16</ele>
        <time>2023-11-13T13:27:58Z</time>
      </trkpt>
      <trkpt lat="47.79339" lon="-2.32646">
        <ele>16</ele>
        <time>2023-11-13T13:28:23Z</time>
      </trkpt>
      <trkpt lat="47.79337" lon="-2.32619">
        <ele>16</ele>
        <time>2023-11-13T13:28:47Z</time>
      </trkpt>
      <trkpt lat="47.79338" lon="-2.32591">
        <ele>16</ele>
        <time>2023-11-13T13:29:13Z</time>
      </trkpt>
      <trkpt lat="47.79343" lon="-2.32537">
        <ele>14</ele>
        <time>2023-11-13T13:30:01Z</time>
      </trkpt>
      <trkpt lat="47.79339" lon="-2.32482">
        <ele>13</ele>
        <time>2023-11-13T13:30:51Z</time>
      </trkpt>
      <trkpt lat="47.79352" lon="-2.32315">
        <ele>13</ele>
        <time>2023-11-13T13:33:22Z</time>
      </trkpt>
      <trkpt lat="47.79367" lon="-2.32263">
        <ele>12</ele>
        <time>2023-11-13T13:34:13Z</time>
      </trkpt>
      <trkpt lat="47.79371" lon="-2.32236">
        <ele>12</ele>
        <time>2023-11-13T13:34:37Z</time>
      </trkpt>
      <trkpt lat="47.79385" lon="-2.32185">
        <ele>12</ele>
        <time>2023-11-13T13:35:27Z</time>
      </trkpt>
      <trkpt lat="47.79403" lon="-2.32138">
        <ele>12</ele>
        <time>2023-11-13T13:36:15Z</time>
      </trkpt>
      <trkpt lat="47.79414" lon="-2.32116">
        <ele>13</ele>
        <time>2023-11-13T13:36:40Z</time>
      </trkpt>
      <trkpt lat="47.79433" lon="-2.32037">
        <ele>14</ele>
        <time>2023-11-13T13:37:55Z</time>
      </trkpt>
      <trkpt lat="47.79444" lon="-2.32014">
        <ele>14</ele>
        <time>2023-11-13T13:38:20Z</time>
      </trkpt>
      <trkpt lat="47.79456" lon="-2.31933">
        <ele>15</ele>
        <time>2023-11-13T13:39:35Z</time>
      </trkpt>
      <trkpt lat="47.79475" lon="-2.31936">
        <ele>15</ele>
        <time>2023-11-13T13:40:00Z</time>
      </trkpt>
      <trkpt lat="47.79492" lon="-2.31926">
        <ele>15</ele>
        <time>2023-11-13T13:40:25Z</time>
      </trkpt>
      <trkpt lat="47.7949" lon="-2.31896">
        <ele>15</ele>
        <time>2023-11-13T13:40:52Z</time>
      </trkpt>
    </trkseg>
  </trk>
  <trk>
    <name><![CDATA[StLaurentOust_Houssa_12.8km-7072306]]></name>
    <extensions>
      <line xmlns="http://www.topografix.com/GPX/gpx_style/0/2">
        <color>00FF00</color>
        <width>4</width>
      </line>
    </extensions>
    <trkseg>
      <trkpt lat="47.79441" lon="-2.31912">
        <ele>15</ele>
        <time>2023-11-13T07:27:31Z</time>
      </trkpt>
      <trkpt lat="47.79413" lon="-2.32112">
        <ele>13</ele>
        <time>2023-11-13T07:30:34Z</time>
      </trkpt>
      <trkpt lat="47.79171" lon="-2.31961">
        <ele>12</ele>
        <time>2023-11-13T07:36:24Z</time>
      </trkpt>
      <trkpt lat="47.79015" lon="-2.31734">
        <ele>11</ele>
        <time>2023-11-13T07:41:15Z</time>
      </trkpt>
      <trkpt lat="47.79055" lon="-2.31648">
        <ele>14</ele>
        <time>2023-11-13T07:42:49Z</time>
      </trkpt>
      <trkpt lat="47.78951" lon="-2.31532">
        <ele>12</ele>
        <time>2023-11-13T07:45:43Z</time>
      </trkpt>
      <trkpt lat="47.79127" lon="-2.3085">
        <ele>28</ele>
        <time>2023-11-13T07:56:38Z</time>
      </trkpt>
      <trkpt lat="47.78597" lon="-2.30489">
        <ele>47</ele>
        <time>2023-11-13T08:09:35Z</time>
      </trkpt>
      <trkpt lat="47.78695" lon="-2.30228">
        <ele>45</ele>
        <time>2023-11-13T08:14:04Z</time>
      </trkpt>
      <trkpt lat="47.78577" lon="-2.3012">
        <ele>65</ele>
        <time>2023-11-13T08:17:08Z</time>
      </trkpt>
      <trkpt lat="47.78995" lon="-2.2888">
        <ele>61</ele>
        <time>2023-11-13T08:37:52Z</time>
      </trkpt>
      <trkpt lat="47.79413" lon="-2.29009">
        <ele>60</ele>
        <time>2023-11-13T08:47:22Z</time>
      </trkpt>
      <trkpt lat="47.79407" lon="-2.28528">
        <ele>70</ele>
        <time>2023-11-13T08:54:33Z</time>
      </trkpt>
      <trkpt lat="47.79029" lon="-2.28279">
        <ele>79</ele>
        <time>2023-11-13T09:03:45Z</time>
      </trkpt>
      <trkpt lat="47.79009" lon="-2.27739">
        <ele>76</ele>
        <time>2023-11-13T09:11:50Z</time>
      </trkpt>
      <trkpt lat="47.78917" lon="-2.27833">
        <ele>99</ele>
        <time>2023-11-13T09:14:19Z</time>
      </trkpt>
      <trkpt lat="47.78882" lon="-2.2776">
        <ele>101</ele>
        <time>2023-11-13T09:15:39Z</time>
      </trkpt>
      <trkpt lat="47.7896" lon="-2.27648">
        <ele>83</ele>
        <time>2023-11-13T09:18:04Z</time>
      </trkpt>
      <trkpt lat="47.78848" lon="-2.2761">
        <ele>98</ele>
        <time>2023-11-13T09:20:37Z</time>
      </trkpt>
      <trkpt lat="47.78591" lon="-2.28374">
        <ele>100</ele>
        <time>2023-11-13T09:33:23Z</time>
      </trkpt>
      <trkpt lat="47.78531" lon="-2.28284">
        <ele>101</ele>
        <time>2023-11-13T09:35:17Z</time>
      </trkpt>
      <trkpt lat="47.78383" lon="-2.28799">
        <ele>100</ele>
        <time>2023-11-13T09:43:39Z</time>
      </trkpt>
      <trkpt lat="47.77936" lon="-2.28631">
        <ele>86</ele>
        <time>2023-11-13T09:53:54Z</time>
      </trkpt>
      <trkpt lat="47.77962" lon="-2.28691">
        <ele>88</ele>
        <time>2023-11-13T09:54:58Z</time>
      </trkpt>
      <trkpt lat="47.77859" lon="-2.29116">
        <ele>74</ele>
        <time>2023-11-13T10:01:43Z</time>
      </trkpt>
      <trkpt lat="47.78066" lon="-2.29232">
        <ele>88</ele>
        <time>2023-11-13T10:06:39Z</time>
      </trkpt>
      <trkpt lat="47.7798" lon="-2.29618">
        <ele>79</ele>
        <time>2023-11-13T10:12:43Z</time>
      </trkpt>
      <trkpt lat="47.7832" lon="-2.29811">
        <ele>98</ele>
        <time>2023-11-13T10:20:49Z</time>
      </trkpt>
      <trkpt lat="47.78392" lon="-2.30253">
        <ele>84</ele>
        <time>2023-11-13T10:27:37Z</time>
      </trkpt>
      <trkpt lat="47.78415" lon="-2.3073">
        <ele>77</ele>
        <time>2023-11-13T10:34:45Z</time>
      </trkpt>
      <trkpt lat="47.7828" lon="-2.30889">
        <ele>73</ele>
        <time>2023-11-13T10:38:35Z</time>
      </trkpt>
      <trkpt lat="47.78357" lon="-2.31253">
        <ele>64</ele>
        <time>2023-11-13T10:44:17Z</time>
      </trkpt>
      <trkpt lat="47.78438" lon="-2.31313">
        <ele>57</ele>
        <time>2023-11-13T10:46:18Z</time>
      </trkpt>
      <trkpt lat="47.78464" lon="-2.31172">
        <ele>68</ele>
        <time>2023-11-13T10:48:29Z</time>
      </trkpt>
      <trkpt lat="47.78418" lon="-2.31064">
        <ele>79</ele>
        <time>2023-11-13T10:50:24Z</time>
      </trkpt>
      <trkpt lat="47.78421" lon="-2.30996">
        <ele>79</ele>
        <time>2023-11-13T10:51:25Z</time>
      </trkpt>
      <trkpt lat="47.78487" lon="-2.31125">
        <ele>66</ele>
        <time>2023-11-13T10:53:50Z</time>
      </trkpt>
      <trkpt lat="47.78528" lon="-2.3106">
        <ele>57</ele>
        <time>2023-11-13T10:55:10Z</time>
      </trkpt>
      <trkpt lat="47.78516" lon="-2.30871">
        <ele>58</ele>
        <time>2023-11-13T10:58:00Z</time>
      </trkpt>
      <trkpt lat="47.78476" lon="-2.30657">
        <ele>65</ele>
        <time>2023-11-13T11:01:20Z</time>
      </trkpt>
      <trkpt lat="47.78545" lon="-2.30498">
        <ele>56</ele>
        <time>2023-11-13T11:04:09Z</time>
      </trkpt>
      <trkpt lat="47.78574" lon="-2.30567">
        <ele>47</ele>
        <time>2023-11-13T11:05:22Z</time>
      </trkpt>
      <trkpt lat="47.7862" lon="-2.30481">
        <ele>45</ele>
        <time>2023-11-13T11:07:01Z</time>
      </trkpt>
      <trkpt lat="47.79136" lon="-2.30811">
        <ele>27</ele>
        <time>2023-11-13T11:19:30Z</time>
      </trkpt>
      <trkpt lat="47.78951" lon="-2.31494">
        <ele>13</ele>
        <time>2023-11-13T11:30:31Z</time>
      </trkpt>
      <trkpt lat="47.79122" lon="-2.31682">
        <ele>15</ele>
        <time>2023-11-13T11:35:14Z</time>
      </trkpt>
      <trkpt lat="47.79338" lon="-2.31807">
        <ele>15</ele>
        <time>2023-11-13T11:40:24Z</time>
      </trkpt>
      <trkpt lat="47.79445" lon="-2.31983">
        <ele>14</ele>
        <time>2023-11-13T11:43:56Z</time>
      </trkpt>
    </trkseg>
  </trk>
  <trk>
    <name><![CDATA[StLaurentOust_HoussaV2_15,5km-7072310]]></name>
    <extensions>
      <line xmlns="http://www.topografix.com/GPX/gpx_style/0/2">
        <color>FF0000</color>
        <width>4</width>
      </line>
    </extensions>
    <trkseg>
      <trkpt lat="47.79441" lon="-2.31912">
        <ele>15</ele>
        <time>2023-11-13T07:27:24Z</time>
      </trkpt>
      <trkpt lat="47.79413" lon="-2.32112">
        <ele>13</ele>
        <time>2023-11-13T07:30:27Z</time>
      </trkpt>
      <trkpt lat="47.79171" lon="-2.31961">
        <ele>12</ele>
        <time>2023-11-13T07:36:17Z</time>
      </trkpt>
      <trkpt lat="47.79015" lon="-2.31734">
        <ele>11</ele>
        <time>2023-11-13T07:41:08Z</time>
      </trkpt>
      <trkpt lat="47.79055" lon="-2.31648">
        <ele>14</ele>
        <time>2023-11-13T07:42:42Z</time>
      </trkpt>
      <trkpt lat="47.78951" lon="-2.31532">
        <ele>12</ele>
        <time>2023-11-13T07:45:36Z</time>
      </trkpt>
      <trkpt lat="47.79127" lon="-2.3085">
        <ele>28</ele>
        <time>2023-11-13T07:56:31Z</time>
      </trkpt>
      <trkpt lat="47.78597" lon="-2.30489">
        <ele>47</ele>
        <time>2023-11-13T08:09:28Z</time>
      </trkpt>
      <trkpt lat="47.78695" lon="-2.30228">
        <ele>45</ele>
        <time>2023-11-13T08:13:57Z</time>
      </trkpt>
      <trkpt lat="47.78577" lon="-2.3012">
        <ele>65</ele>
        <time>2023-11-13T08:17:01Z</time>
      </trkpt>
      <trkpt lat="47.78995" lon="-2.2888">
        <ele>61</ele>
        <time>2023-11-13T08:37:45Z</time>
      </trkpt>
      <trkpt lat="47.79413" lon="-2.29009">
        <ele>60</ele>
        <time>2023-11-13T08:47:15Z</time>
      </trkpt>
      <trkpt lat="47.79407" lon="-2.28528">
        <ele>70</ele>
        <time>2023-11-13T08:54:26Z</time>
      </trkpt>
      <trkpt lat="47.79029" lon="-2.28279">
        <ele>79</ele>
        <time>2023-11-13T09:03:38Z</time>
      </trkpt>
      <trkpt lat="47.79009" lon="-2.27683">
        <ele>75</ele>
        <time>2023-11-13T09:12:33Z</time>
      </trkpt>
      <trkpt lat="47.78897" lon="-2.27421">
        <ele>93</ele>
        <time>2023-11-13T09:17:11Z</time>
      </trkpt>
      <trkpt lat="47.78972" lon="-2.27262">
        <ele>94</ele>
        <time>2023-11-13T09:20:05Z</time>
      </trkpt>
      <trkpt lat="47.7913" lon="-2.27202">
        <ele>72</ele>
        <time>2023-11-13T09:23:43Z</time>
      </trkpt>
      <trkpt lat="47.79122" lon="-2.26979">
        <ele>74</ele>
        <time>2023-11-13T09:27:03Z</time>
      </trkpt>
      <trkpt lat="47.79087" lon="-2.26679">
        <ele>85</ele>
        <time>2023-11-13T09:31:36Z</time>
      </trkpt>
      <trkpt lat="47.78977" lon="-2.264">
        <ele>96</ele>
        <time>2023-11-13T09:36:26Z</time>
      </trkpt>
      <trkpt lat="47.78934" lon="-2.25945">
        <ele>83</ele>
        <time>2023-11-13T09:43:18Z</time>
      </trkpt>
      <trkpt lat="47.78637" lon="-2.25786">
        <ele>90</ele>
        <time>2023-11-13T09:50:19Z</time>
      </trkpt>
      <trkpt lat="47.78649" lon="-2.25958">
        <ele>90</ele>
        <time>2023-11-13T09:52:54Z</time>
      </trkpt>
      <trkpt lat="47.78608" lon="-2.26164">
        <ele>90</ele>
        <time>2023-11-13T09:56:07Z</time>
      </trkpt>
      <trkpt lat="47.78473" lon="-2.26387">
        <ele>86</ele>
        <time>2023-11-13T10:00:36Z</time>
      </trkpt>
      <trkpt lat="47.7851" lon="-2.26623">
        <ele>88</ele>
        <time>2023-11-13T10:04:14Z</time>
      </trkpt>
      <trkpt lat="47.78464" lon="-2.27039">
        <ele>89</ele>
        <time>2023-11-13T10:10:32Z</time>
      </trkpt>
      <trkpt lat="47.78046" lon="-2.27108">
        <ele>64</ele>
        <time>2023-11-13T10:19:53Z</time>
      </trkpt>
      <trkpt lat="47.7796" lon="-2.27833">
        <ele>73</ele>
        <time>2023-11-13T10:30:53Z</time>
      </trkpt>
      <trkpt lat="47.77902" lon="-2.28249">
        <ele>78</ele>
        <time>2023-11-13T10:37:14Z</time>
      </trkpt>
      <trkpt lat="47.77755" lon="-2.28588">
        <ele>79</ele>
        <time>2023-11-13T10:43:16Z</time>
      </trkpt>
      <trkpt lat="47.77936" lon="-2.28631">
        <ele>86</ele>
        <time>2023-11-13T10:47:20Z</time>
      </trkpt>
      <trkpt lat="47.77962" lon="-2.28691">
        <ele>88</ele>
        <time>2023-11-13T10:48:24Z</time>
      </trkpt>
      <trkpt lat="47.77859" lon="-2.29116">
        <ele>74</ele>
        <time>2023-11-13T10:55:10Z</time>
      </trkpt>
      <trkpt lat="47.78066" lon="-2.29232">
        <ele>88</ele>
        <time>2023-11-13T11:00:05Z</time>
      </trkpt>
      <trkpt lat="47.7798" lon="-2.29618">
        <ele>79</ele>
        <time>2023-11-13T11:06:09Z</time>
      </trkpt>
      <trkpt lat="47.7832" lon="-2.29811">
        <ele>98</ele>
        <time>2023-11-13T11:14:15Z</time>
      </trkpt>
      <trkpt lat="47.78392" lon="-2.30253">
        <ele>84</ele>
        <time>2023-11-13T11:21:03Z</time>
      </trkpt>
      <trkpt lat="47.78415" lon="-2.3073">
        <ele>77</ele>
        <time>2023-11-13T11:28:12Z</time>
      </trkpt>
      <trkpt lat="47.7828" lon="-2.30889">
        <ele>73</ele>
        <time>2023-11-13T11:32:01Z</time>
      </trkpt>
      <trkpt lat="47.78357" lon="-2.31253">
        <ele>64</ele>
        <time>2023-11-13T11:37:44Z</time>
      </trkpt>
      <trkpt lat="47.78438" lon="-2.31313">
        <ele>57</ele>
        <time>2023-11-13T11:39:44Z</time>
      </trkpt>
      <trkpt lat="47.78464" lon="-2.31172">
        <ele>68</ele>
        <time>2023-11-13T11:41:55Z</time>
      </trkpt>
      <trkpt lat="47.78418" lon="-2.31064">
        <ele>79</ele>
        <time>2023-11-13T11:43:50Z</time>
      </trkpt>
      <trkpt lat="47.78421" lon="-2.30996">
        <ele>79</ele>
        <time>2023-11-13T11:44:51Z</time>
      </trkpt>
      <trkpt lat="47.78487" lon="-2.31125">
        <ele>66</ele>
        <time>2023-11-13T11:47:17Z</time>
      </trkpt>
      <trkpt lat="47.78528" lon="-2.3106">
        <ele>57</ele>
        <time>2023-11-13T11:48:36Z</time>
      </trkpt>
      <trkpt lat="47.78516" lon="-2.30871">
        <ele>58</ele>
        <time>2023-11-13T11:51:27Z</time>
      </trkpt>
      <trkpt lat="47.78476" lon="-2.30657">
        <ele>65</ele>
        <time>2023-11-13T11:54:46Z</time>
      </trkpt>
      <trkpt lat="47.78545" lon="-2.30498">
        <ele>56</ele>
        <time>2023-11-13T11:57:36Z</time>
      </trkpt>
      <trkpt lat="47.78574" lon="-2.30567">
        <ele>47</ele>
        <time>2023-11-13T11:58:49Z</time>
      </trkpt>
      <trkpt lat="47.7862" lon="-2.30481">
        <ele>45</ele>
        <time>2023-11-13T12:00:27Z</time>
      </trkpt>
      <trkpt lat="47.79136" lon="-2.30811">
        <ele>27</ele>
        <time>2023-11-13T12:12:57Z</time>
      </trkpt>
      <trkpt lat="47.78951" lon="-2.31494">
        <ele>13</ele>
        <time>2023-11-13T12:23:57Z</time>
      </trkpt>
      <trkpt lat="47.79122" lon="-2.31682">
        <ele>15</ele>
        <time>2023-11-13T12:28:40Z</time>
      </trkpt>
      <trkpt lat="47.79338" lon="-2.31807">
        <ele>15</ele>
        <time>2023-11-13T12:33:50Z</time>
      </trkpt>
      <trkpt lat="47.79445" lon="-2.31983">
        <ele>14</ele>
        <time>2023-11-13T12:37:23Z</time>
      </trkpt>
    </trkseg>
  </trk>
  <trk>
    <name><![CDATA[StLaurentOust_HoussaV3_18.8km-7072327]]></name>
    <extensions>
      <line xmlns="http://www.topografix.com/GPX/gpx_style/0/2">
        <color>00FFFF</color>
        <width>4</width>
      </line>
    </extensions>
    <trkseg>
      <trkpt lat="47.79441" lon="-2.31912">
        <ele>15</ele>
        <time>2023-11-13T07:27:17Z</time>
      </trkpt>
      <trkpt lat="47.79413" lon="-2.32112">
        <ele>13</ele>
        <time>2023-11-13T07:30:20Z</time>
      </trkpt>
      <trkpt lat="47.79171" lon="-2.31961">
        <ele>12</ele>
        <time>2023-11-13T07:36:10Z</time>
      </trkpt>
      <trkpt lat="47.79015" lon="-2.31734">
        <ele>11</ele>
        <time>2023-11-13T07:41:01Z</time>
      </trkpt>
      <trkpt lat="47.79055" lon="-2.31648">
        <ele>14</ele>
        <time>2023-11-13T07:42:35Z</time>
      </trkpt>
      <trkpt lat="47.78951" lon="-2.31532">
        <ele>12</ele>
        <time>2023-11-13T07:45:29Z</time>
      </trkpt>
      <trkpt lat="47.79127" lon="-2.3085">
        <ele>28</ele>
        <time>2023-11-13T07:56:24Z</time>
      </trkpt>
      <trkpt lat="47.78597" lon="-2.30489">
        <ele>47</ele>
        <time>2023-11-13T08:09:21Z</time>
      </trkpt>
      <trkpt lat="47.78695" lon="-2.30228">
        <ele>45</ele>
        <time>2023-11-13T08:13:50Z</time>
      </trkpt>
      <trkpt lat="47.78577" lon="-2.3012">
        <ele>65</ele>
        <time>2023-11-13T08:16:54Z</time>
      </trkpt>
      <trkpt lat="47.78995" lon="-2.2888">
        <ele>61</ele>
        <time>2023-11-13T08:37:38Z</time>
      </trkpt>
      <trkpt lat="47.79413" lon="-2.29009">
        <ele>60</ele>
        <time>2023-11-13T08:47:08Z</time>
      </trkpt>
      <trkpt lat="47.79407" lon="-2.28528">
        <ele>70</ele>
        <time>2023-11-13T08:54:19Z</time>
      </trkpt>
      <trkpt lat="47.79029" lon="-2.28279">
        <ele>79</ele>
        <time>2023-11-13T09:03:31Z</time>
      </trkpt>
      <trkpt lat="47.79009" lon="-2.27683">
        <ele>75</ele>
        <time>2023-11-13T09:12:26Z</time>
      </trkpt>
      <trkpt lat="47.78897" lon="-2.27421">
        <ele>93</ele>
        <time>2023-11-13T09:17:04Z</time>
      </trkpt>
      <trkpt lat="47.78695" lon="-2.27009">
        <ele>99</ele>
        <time>2023-11-13T09:24:42Z</time>
      </trkpt>
      <trkpt lat="47.78735" lon="-2.26799">
        <ele>96</ele>
        <time>2023-11-13T09:27:57Z</time>
      </trkpt>
      <trkpt lat="47.78735" lon="-2.26584">
        <ele>96</ele>
        <time>2023-11-13T09:31:10Z</time>
      </trkpt>
      <trkpt lat="47.78724" lon="-2.26318">
        <ele>95</ele>
        <time>2023-11-13T09:35:09Z</time>
      </trkpt>
      <trkpt lat="47.78706" lon="-2.26215">
        <ele>93</ele>
        <time>2023-11-13T09:36:44Z</time>
      </trkpt>
      <trkpt lat="47.78689" lon="-2.26103">
        <ele>93</ele>
        <time>2023-11-13T09:38:27Z</time>
      </trkpt>
      <trkpt lat="47.78669" lon="-2.26031">
        <ele>92</ele>
        <time>2023-11-13T09:39:37Z</time>
      </trkpt>
      <trkpt lat="47.78649" lon="-2.25958">
        <ele>90</ele>
        <time>2023-11-13T09:40:48Z</time>
      </trkpt>
      <trkpt lat="47.78608" lon="-2.26164">
        <ele>90</ele>
        <time>2023-11-13T09:44:01Z</time>
      </trkpt>
      <trkpt lat="47.78473" lon="-2.26387">
        <ele>86</ele>
        <time>2023-11-13T09:48:30Z</time>
      </trkpt>
      <trkpt lat="47.78363" lon="-2.26327">
        <ele>76</ele>
        <time>2023-11-13T09:51:06Z</time>
      </trkpt>
      <trkpt lat="47.78182" lon="-2.25374">
        <ele>65</ele>
        <time>2023-11-13T10:05:54Z</time>
      </trkpt>
      <trkpt lat="47.7772" lon="-2.25567">
        <ele>41</ele>
        <time>2023-11-13T10:16:34Z</time>
      </trkpt>
      <trkpt lat="47.7755" lon="-2.25704">
        <ele>38</ele>
        <time>2023-11-13T10:20:52Z</time>
      </trkpt>
      <trkpt lat="47.77348" lon="-2.25691">
        <ele>44</ele>
        <time>2023-11-13T10:25:22Z</time>
      </trkpt>
      <trkpt lat="47.77086" lon="-2.2582">
        <ele>51</ele>
        <time>2023-11-13T10:31:30Z</time>
      </trkpt>
      <trkpt lat="47.77094" lon="-2.25496">
        <ele>43</ele>
        <time>2023-11-13T10:36:21Z</time>
      </trkpt>
      <trkpt lat="47.76702" lon="-2.25642">
        <ele>70</ele>
        <time>2023-11-13T10:45:21Z</time>
      </trkpt>
      <trkpt lat="47.76809" lon="-2.25955">
        <ele>72</ele>
        <time>2023-11-13T10:50:35Z</time>
      </trkpt>
      <trkpt lat="47.7689" lon="-2.2702">
        <ele>88</ele>
        <time>2023-11-13T11:06:37Z</time>
      </trkpt>
      <trkpt lat="47.7682" lon="-2.27041">
        <ele>87</ele>
        <time>2023-11-13T11:08:12Z</time>
      </trkpt>
      <trkpt lat="47.76546" lon="-2.28127">
        <ele>64</ele>
        <time>2023-11-13T11:25:33Z</time>
      </trkpt>
      <trkpt lat="47.76584" lon="-2.28294">
        <ele>68</ele>
        <time>2023-11-13T11:28:11Z</time>
      </trkpt>
      <trkpt lat="47.76898" lon="-2.28183">
        <ele>80</ele>
        <time>2023-11-13T11:35:21Z</time>
      </trkpt>
      <trkpt lat="47.76904" lon="-2.28354">
        <ele>81</ele>
        <time>2023-11-13T11:37:55Z</time>
      </trkpt>
      <trkpt lat="47.77057" lon="-2.28208">
        <ele>78</ele>
        <time>2023-11-13T11:41:58Z</time>
      </trkpt>
      <trkpt lat="47.77325" lon="-2.28307">
        <ele>89</ele>
        <time>2023-11-13T11:48:06Z</time>
      </trkpt>
      <trkpt lat="47.7755" lon="-2.28509">
        <ele>84</ele>
        <time>2023-11-13T11:53:57Z</time>
      </trkpt>
      <trkpt lat="47.77936" lon="-2.28631">
        <ele>86</ele>
        <time>2023-11-13T12:02:43Z</time>
      </trkpt>
      <trkpt lat="47.77962" lon="-2.28691">
        <ele>88</ele>
        <time>2023-11-13T12:03:47Z</time>
      </trkpt>
      <trkpt lat="47.77859" lon="-2.29116">
        <ele>74</ele>
        <time>2023-11-13T12:10:32Z</time>
      </trkpt>
      <trkpt lat="47.78066" lon="-2.29232">
        <ele>88</ele>
        <time>2023-11-13T12:15:28Z</time>
      </trkpt>
      <trkpt lat="47.7798" lon="-2.29618">
        <ele>79</ele>
        <time>2023-11-13T12:21:32Z</time>
      </trkpt>
      <trkpt lat="47.7832" lon="-2.29811">
        <ele>98</ele>
        <time>2023-11-13T12:29:38Z</time>
      </trkpt>
      <trkpt lat="47.78392" lon="-2.30253">
        <ele>84</ele>
        <time>2023-11-13T12:36:26Z</time>
      </trkpt>
      <trkpt lat="47.78415" lon="-2.3073">
        <ele>77</ele>
        <time>2023-11-13T12:43:35Z</time>
      </trkpt>
      <trkpt lat="47.7828" lon="-2.30889">
        <ele>73</ele>
        <time>2023-11-13T12:47:24Z</time>
      </trkpt>
      <trkpt lat="47.78357" lon="-2.31253">
        <ele>64</ele>
        <time>2023-11-13T12:53:06Z</time>
      </trkpt>
      <trkpt lat="47.78438" lon="-2.31313">
        <ele>57</ele>
        <time>2023-11-13T12:55:07Z</time>
      </trkpt>
      <trkpt lat="47.78464" lon="-2.31172">
        <ele>68</ele>
        <time>2023-11-13T12:57:18Z</time>
      </trkpt>
      <trkpt lat="47.78418" lon="-2.31064">
        <ele>79</ele>
        <time>2023-11-13T12:59:13Z</time>
      </trkpt>
      <trkpt lat="47.78421" lon="-2.30996">
        <ele>79</ele>
        <time>2023-11-13T13:00:14Z</time>
      </trkpt>
      <trkpt lat="47.78487" lon="-2.31125">
        <ele>66</ele>
        <time>2023-11-13T13:02:39Z</time>
      </trkpt>
      <trkpt lat="47.78528" lon="-2.3106">
        <ele>57</ele>
        <time>2023-11-13T13:03:59Z</time>
      </trkpt>
      <trkpt lat="47.78516" lon="-2.30871">
        <ele>58</ele>
        <time>2023-11-13T13:06:50Z</time>
      </trkpt>
      <trkpt lat="47.78476" lon="-2.30657">
        <ele>65</ele>
        <time>2023-11-13T13:10:09Z</time>
      </trkpt>
      <trkpt lat="47.78545" lon="-2.30498">
        <ele>56</ele>
        <time>2023-11-13T13:12:58Z</time>
      </trkpt>
      <trkpt lat="47.78574" lon="-2.30567">
        <ele>47</ele>
        <time>2023-11-13T13:14:11Z</time>
      </trkpt>
      <trkpt lat="47.7862" lon="-2.30481">
        <ele>45</ele>
        <time>2023-11-13T13:15:50Z</time>
      </trkpt>
      <trkpt lat="47.79136" lon="-2.30811">
        <ele>27</ele>
        <time>2023-11-13T13:28:19Z</time>
      </trkpt>
      <trkpt lat="47.78951" lon="-2.31494">
        <ele>13</ele>
        <time>2023-11-13T13:39:20Z</time>
      </trkpt>
      <trkpt lat="47.79122" lon="-2.31682">
        <ele>15</ele>
        <time>2023-11-13T13:44:03Z</time>
      </trkpt>
    </trkseg>
  </trk>
</gpx>